<?xml version='1.0' encoding='UTF-8'?><gpx version="1.1" creator="JPX - https://github.com/jenetics/jpx" xmlns="http://www.topografix.com/GPX/1/1"><trk><trkseg><trkpt lat="44.08318" lon="12.3043183"><ele>153.0</ele><time>2026-04-03T13:55:29.725Z</time></trkpt><trkpt lat="44.0831" lon="12.304365"><ele>153.0</ele><time>2026-04-03T13:55:32.725Z</time></trkpt><trkpt lat="44.0830317" lon="12.3044233"><ele>153.0</ele><time>2026-04-03T13:55:34.725Z</time></trkpt><trkpt lat="44.08297" lon="12.30451"><ele>153.0</ele><time>2026-04-03T13:55:36.726Z</time></trkpt><trkpt lat="44.082895" lon="12.30462"><ele>153.0</ele><time>2026-04-03T13:55:38.726Z</time></trkpt><trkpt lat="44.082805" lon="12.3047317"><ele>153.6</ele><time>2026-04-03T13:55:40.727Z</time></trkpt><trkpt lat="44.0827117" lon="12.3048117"><ele>154.20000000000002</ele><time>2026-04-03T13:55:42.727Z</time></trkpt><trkpt lat="44.0826117" lon="12.3048483"><ele>154.8</ele><time>2026-04-03T13:55:44.727Z</time></trkpt><trkpt lat="44.082495" lon="12.3048533"><ele>155.4</ele><time>2026-04-03T13:55:46.727Z</time></trkpt><trkpt lat="44.08243" lon="12.3048467"><ele>156.0</ele><time>2026-04-03T13:55:47.728Z</time></trkpt><trkpt lat="44.08236" lon="12.3048317"><ele>157.2</ele><time>2026-04-03T13:55:48.727Z</time></trkpt><trkpt lat="44.0822867" lon="12.3048233"><ele>158.39999999999998</ele><time>2026-04-03T13:55:49.725Z</time></trkpt><trkpt lat="44.0821867" lon="12.304815"><ele>159.6</ele><time>2026-04-03T13:55:50.726Z</time></trkpt><trkpt lat="44.0820967" lon="12.30484"><ele>160.79999999999998</ele><time>2026-04-03T13:55:51.726Z</time></trkpt><trkpt lat="44.0819733" lon="12.3049083"><ele>162.0</ele><time>2026-04-03T13:55:52.727Z</time></trkpt><trkpt lat="44.0818533" lon="12.305015"><ele>162.0</ele><time>2026-04-03T13:55:53.726Z</time></trkpt><trkpt lat="44.0817417" lon="12.305125"><ele>162.0</ele><time>2026-04-03T13:55:54.726Z</time></trkpt><trkpt lat="44.081625" lon="12.3052267"><ele>162.0</ele><time>2026-04-03T13:55:55.726Z</time></trkpt><trkpt lat="44.0815083" lon="12.30532"><ele>162.0</ele><time>2026-04-03T13:55:56.726Z</time></trkpt><trkpt lat="44.0813833" lon="12.3054133"><ele>161.75</ele><time>2026-04-03T13:55:57.725Z</time></trkpt><trkpt lat="44.0812583" lon="12.3055"><ele>161.5</ele><time>2026-04-03T13:55:58.725Z</time></trkpt><trkpt lat="44.08113" lon="12.305575"><ele>161.25</ele><time>2026-04-03T13:55:59.726Z</time></trkpt><trkpt lat="44.08101" lon="12.3056533"><ele>161.0</ele><time>2026-04-03T13:56:00.725Z</time></trkpt><trkpt lat="44.0808883" lon="12.3057317"><ele>160.5</ele><time>2026-04-03T13:56:01.725Z</time></trkpt><trkpt lat="44.0807583" lon="12.3058033"><ele>160.0</ele><time>2026-04-03T13:56:02.727Z</time></trkpt><trkpt lat="44.0806283" lon="12.3058683"><ele>159.5</ele><time>2026-04-03T13:56:03.725Z</time></trkpt><trkpt lat="44.0805083" lon="12.3059067"><ele>159.0</ele><time>2026-04-03T13:56:04.725Z</time></trkpt><trkpt lat="44.0804033" lon="12.3059067"><ele>159.0</ele><time>2026-04-03T13:56:05.726Z</time></trkpt><trkpt lat="44.0803183" lon="12.3058517"><ele>159.0</ele><time>2026-04-03T13:56:06.726Z</time></trkpt><trkpt lat="44.08024" lon="12.305745"><ele>159.0</ele><time>2026-04-03T13:56:07.727Z</time></trkpt><trkpt lat="44.080165" lon="12.3056017"><ele>159.0</ele><time>2026-04-03T13:56:08.726Z</time></trkpt><trkpt lat="44.0800917" lon="12.305425"><ele>157.0</ele><time>2026-04-03T13:56:09.726Z</time></trkpt><trkpt lat="44.080015" lon="12.3052383"><ele>155.0</ele><time>2026-04-03T13:56:10.726Z</time></trkpt><trkpt lat="44.07994" lon="12.3050517"><ele>153.0</ele><time>2026-04-03T13:56:11.726Z</time></trkpt><trkpt lat="44.0798567" lon="12.3048733"><ele>158.66666666666666</ele><time>2026-04-03T13:56:12.726Z</time></trkpt><trkpt lat="44.07976" lon="12.3047067"><ele>164.33333333333331</ele><time>2026-04-03T13:56:13.725Z</time></trkpt><trkpt lat="44.0796567" lon="12.3045533"><ele>170.0</ele><time>2026-04-03T13:56:14.726Z</time></trkpt><trkpt lat="44.0795417" lon="12.3044167"><ele>170.0</ele><time>2026-04-03T13:56:15.726Z</time></trkpt><trkpt lat="44.079415" lon="12.3043117"><ele>170.0</ele><time>2026-04-03T13:56:16.726Z</time></trkpt><trkpt lat="44.0792717" lon="12.304245"><ele>170.0</ele><time>2026-04-03T13:56:17.726Z</time></trkpt><trkpt lat="44.0791167" lon="12.304225"><ele>170.33333333333331</ele><time>2026-04-03T13:56:18.728Z</time></trkpt><trkpt lat="44.0789517" lon="12.30426"><ele>170.66666666666666</ele><time>2026-04-03T13:56:19.725Z</time></trkpt><trkpt lat="44.0787883" lon="12.30431"><ele>171.0</ele><time>2026-04-03T13:56:20.725Z</time></trkpt><trkpt lat="44.0786217" lon="12.30435"><ele>171.0</ele><time>2026-04-03T13:56:21.726Z</time></trkpt><trkpt lat="44.0784533" lon="12.3043533"><ele>171.0</ele><time>2026-04-03T13:56:22.726Z</time></trkpt><trkpt lat="44.078285" lon="12.3043333"><ele>171.0</ele><time>2026-04-03T13:56:23.727Z</time></trkpt><trkpt lat="44.07812" lon="12.3043017"><ele>172.0</ele><time>2026-04-03T13:56:24.725Z</time></trkpt><trkpt lat="44.0779683" lon="12.3042733"><ele>173.0</ele><time>2026-04-03T13:56:25.727Z</time></trkpt><trkpt lat="44.07782" lon="12.3042667"><ele>174.0</ele><time>2026-04-03T13:56:26.726Z</time></trkpt><trkpt lat="44.0776733" lon="12.3043067"><ele>174.0</ele><time>2026-04-03T13:56:27.726Z</time></trkpt><trkpt lat="44.077535" lon="12.30439"><ele>174.0</ele><time>2026-04-03T13:56:28.726Z</time></trkpt><trkpt lat="44.07739" lon="12.304505"><ele>174.0</ele><time>2026-04-03T13:56:29.727Z</time></trkpt><trkpt lat="44.0772417" lon="12.3046283"><ele>173.0</ele><time>2026-04-03T13:56:30.727Z</time></trkpt><trkpt lat="44.0770933" lon="12.3047267"><ele>172.0</ele><time>2026-04-03T13:56:31.727Z</time></trkpt><trkpt lat="44.076935" lon="12.304805"><ele>171.0</ele><time>2026-04-03T13:56:32.726Z</time></trkpt><trkpt lat="44.0767717" lon="12.30487"><ele>171.0</ele><time>2026-04-03T13:56:33.727Z</time></trkpt><trkpt lat="44.076615" lon="12.3049283"><ele>171.0</ele><time>2026-04-03T13:56:34.726Z</time></trkpt><trkpt lat="44.0764583" lon="12.30498"><ele>171.0</ele><time>2026-04-03T13:56:35.727Z</time></trkpt><trkpt lat="44.0762933" lon="12.305005"><ele>172.66666666666666</ele><time>2026-04-03T13:56:36.726Z</time></trkpt><trkpt lat="44.0761233" lon="12.305"><ele>174.33333333333331</ele><time>2026-04-03T13:56:37.726Z</time></trkpt><trkpt lat="44.0759533" lon="12.3049767"><ele>176.0</ele><time>2026-04-03T13:56:38.726Z</time></trkpt><trkpt lat="44.0757833" lon="12.3049567"><ele>175.0</ele><time>2026-04-03T13:56:39.726Z</time></trkpt><trkpt lat="44.07562" lon="12.304945"><ele>174.0</ele><time>2026-04-03T13:56:40.727Z</time></trkpt><trkpt lat="44.0754617" lon="12.3049433"><ele>173.0</ele><time>2026-04-03T13:56:41.727Z</time></trkpt><trkpt lat="44.075325" lon="12.3049283"><ele>173.0</ele><time>2026-04-03T13:56:42.726Z</time></trkpt><trkpt lat="44.07519" lon="12.3048867"><ele>173.0</ele><time>2026-04-03T13:56:43.727Z</time></trkpt><trkpt lat="44.0750583" lon="12.30479"><ele>173.0</ele><time>2026-04-03T13:56:44.726Z</time></trkpt><trkpt lat="44.0749267" lon="12.3046633"><ele>173.0</ele><time>2026-04-03T13:56:45.726Z</time></trkpt><trkpt lat="44.0747883" lon="12.3045017"><ele>172.0</ele><time>2026-04-03T13:56:46.727Z</time></trkpt><trkpt lat="44.074645" lon="12.304325"><ele>171.0</ele><time>2026-04-03T13:56:47.727Z</time></trkpt><trkpt lat="44.0745067" lon="12.3041517"><ele>170.0</ele><time>2026-04-03T13:56:48.727Z</time></trkpt><trkpt lat="44.074375" lon="12.303985"><ele>170.66666666666666</ele><time>2026-04-03T13:56:49.727Z</time></trkpt><trkpt lat="44.0742517" lon="12.3038283"><ele>171.33333333333334</ele><time>2026-04-03T13:56:50.726Z</time></trkpt><trkpt lat="44.0741183" lon="12.3036917"><ele>172.0</ele><time>2026-04-03T13:56:51.727Z</time></trkpt><trkpt lat="44.0739667" lon="12.3035733"><ele>172.0</ele><time>2026-04-03T13:56:52.727Z</time></trkpt><trkpt lat="44.0738067" lon="12.3034717"><ele>172.0</ele><time>2026-04-03T13:56:53.726Z</time></trkpt><trkpt lat="44.073645" lon="12.303375"><ele>172.0</ele><time>2026-04-03T13:56:54.725Z</time></trkpt><trkpt lat="44.0735" lon="12.3032783"><ele>172.0</ele><time>2026-04-03T13:56:55.727Z</time></trkpt><trkpt lat="44.07337" lon="12.3031683"><ele>172.0</ele><time>2026-04-03T13:56:56.726Z</time></trkpt><trkpt lat="44.0732567" lon="12.303025"><ele>172.0</ele><time>2026-04-03T13:56:57.726Z</time></trkpt><trkpt lat="44.0731667" lon="12.3028367"><ele>171.33333333333334</ele><time>2026-04-03T13:56:58.725Z</time></trkpt><trkpt lat="44.0731" lon="12.3026117"><ele>170.66666666666666</ele><time>2026-04-03T13:56:59.727Z</time></trkpt><trkpt lat="44.0730567" lon="12.3023467"><ele>170.0</ele><time>2026-04-03T13:57:00.726Z</time></trkpt><trkpt lat="44.0730167" lon="12.3020733"><ele>170.0</ele><time>2026-04-03T13:57:01.727Z</time></trkpt><trkpt lat="44.07297" lon="12.3017967"><ele>170.0</ele><time>2026-04-03T13:57:02.726Z</time></trkpt><trkpt lat="44.0729133" lon="12.301525"><ele>170.0</ele><time>2026-04-03T13:57:03.725Z</time></trkpt><trkpt lat="44.07284" lon="12.3012667"><ele>171.66666666666666</ele><time>2026-04-03T13:57:04.726Z</time></trkpt><trkpt lat="44.07275" lon="12.30103"><ele>173.33333333333334</ele><time>2026-04-03T13:57:05.727Z</time></trkpt><trkpt lat="44.072655" lon="12.300815"><ele>175.0</ele><time>2026-04-03T13:57:06.726Z</time></trkpt><trkpt lat="44.072575" lon="12.3006067"><ele>176.33333333333334</ele><time>2026-04-03T13:57:07.727Z</time></trkpt><trkpt lat="44.0725283" lon="12.3003917"><ele>177.66666666666666</ele><time>2026-04-03T13:57:08.726Z</time></trkpt><trkpt lat="44.07253" lon="12.30017"><ele>179.0</ele><time>2026-04-03T13:57:09.726Z</time></trkpt><trkpt lat="44.0725367" lon="12.2999417"><ele>179.66666666666666</ele><time>2026-04-03T13:57:10.727Z</time></trkpt><trkpt lat="44.0725217" lon="12.2996967"><ele>180.33333333333334</ele><time>2026-04-03T13:57:11.726Z</time></trkpt><trkpt lat="44.07248" lon="12.2994433"><ele>181.0</ele><time>2026-04-03T13:57:12.727Z</time></trkpt><trkpt lat="44.0724167" lon="12.2991983"><ele>179.66666666666669</ele><time>2026-04-03T13:57:13.726Z</time></trkpt><trkpt lat="44.0723433" lon="12.2989733"><ele>178.33333333333334</ele><time>2026-04-03T13:57:14.726Z</time></trkpt><trkpt lat="44.072255" lon="12.2987683"><ele>177.0</ele><time>2026-04-03T13:57:15.727Z</time></trkpt><trkpt lat="44.0721433" lon="12.29858"><ele>179.66666666666666</ele><time>2026-04-03T13:57:16.725Z</time></trkpt><trkpt lat="44.0720217" lon="12.2984067"><ele>182.33333333333331</ele><time>2026-04-03T13:57:17.727Z</time></trkpt><trkpt lat="44.07188" lon="12.2982633"><ele>185.0</ele><time>2026-04-03T13:57:18.726Z</time></trkpt><trkpt lat="44.0717217" lon="12.29816"><ele>185.33333333333331</ele><time>2026-04-03T13:57:19.727Z</time></trkpt><trkpt lat="44.0715533" lon="12.298105"><ele>185.66666666666666</ele><time>2026-04-03T13:57:20.727Z</time></trkpt><trkpt lat="44.0713683" lon="12.298085"><ele>186.0</ele><time>2026-04-03T13:57:21.726Z</time></trkpt><trkpt lat="44.0711717" lon="12.2980683"><ele>188.66666666666669</ele><time>2026-04-03T13:57:22.726Z</time></trkpt><trkpt lat="44.07097" lon="12.2980383"><ele>191.33333333333334</ele><time>2026-04-03T13:57:23.729Z</time></trkpt><trkpt lat="44.0707717" lon="12.2979917"><ele>194.0</ele><time>2026-04-03T13:57:24.727Z</time></trkpt><trkpt lat="44.0705767" lon="12.297925"><ele>196.0</ele><time>2026-04-03T13:57:25.727Z</time></trkpt><trkpt lat="44.0703833" lon="12.2978517"><ele>198.0</ele><time>2026-04-03T13:57:26.726Z</time></trkpt><trkpt lat="44.0701883" lon="12.2977633"><ele>200.0</ele><time>2026-04-03T13:57:27.727Z</time></trkpt><trkpt lat="44.06999" lon="12.2976817"><ele>199.66666666666669</ele><time>2026-04-03T13:57:28.727Z</time></trkpt><trkpt lat="44.0697883" lon="12.2976"><ele>199.33333333333331</ele><time>2026-04-03T13:57:29.727Z</time></trkpt><trkpt lat="44.069585" lon="12.297505"><ele>199.0</ele><time>2026-04-03T13:57:30.727Z</time></trkpt><trkpt lat="44.069375" lon="12.29743"><ele>199.0</ele><time>2026-04-03T13:57:31.728Z</time></trkpt><trkpt lat="44.06917" lon="12.2973767"><ele>199.0</ele><time>2026-04-03T13:57:32.727Z</time></trkpt><trkpt lat="44.06897" lon="12.2973383"><ele>199.0</ele><time>2026-04-03T13:57:33.726Z</time></trkpt><trkpt lat="44.0687883" lon="12.2973033"><ele>198.66666666666666</ele><time>2026-04-03T13:57:34.727Z</time></trkpt><trkpt lat="44.0686133" lon="12.29728"><ele>198.33333333333331</ele><time>2026-04-03T13:57:35.727Z</time></trkpt><trkpt lat="44.068445" lon="12.2972583"><ele>198.0</ele><time>2026-04-03T13:57:36.728Z</time></trkpt><trkpt lat="44.0682767" lon="12.2972517"><ele>199.0</ele><time>2026-04-03T13:57:37.726Z</time></trkpt><trkpt lat="44.0681067" lon="12.297265"><ele>200.0</ele><time>2026-04-03T13:57:38.726Z</time></trkpt><trkpt lat="44.06793" lon="12.2972833"><ele>201.0</ele><time>2026-04-03T13:57:39.727Z</time></trkpt><trkpt lat="44.067755" lon="12.2973133"><ele>201.0</ele><time>2026-04-03T13:57:40.727Z</time></trkpt><trkpt lat="44.0675883" lon="12.29733"><ele>201.0</ele><time>2026-04-03T13:57:41.726Z</time></trkpt><trkpt lat="44.06744" lon="12.297335"><ele>201.0</ele><time>2026-04-03T13:57:42.727Z</time></trkpt><trkpt lat="44.0673017" lon="12.2973117"><ele>200.5</ele><time>2026-04-03T13:57:43.727Z</time></trkpt><trkpt lat="44.067165" lon="12.2972567"><ele>200.0</ele><time>2026-04-03T13:57:44.726Z</time></trkpt><trkpt lat="44.067035" lon="12.2971783"><ele>199.5</ele><time>2026-04-03T13:57:45.727Z</time></trkpt><trkpt lat="44.0669167" lon="12.2970617"><ele>199.0</ele><time>2026-04-03T13:57:46.727Z</time></trkpt><trkpt lat="44.06681" lon="12.29692"><ele>203.0</ele><time>2026-04-03T13:57:47.727Z</time></trkpt><trkpt lat="44.0667083" lon="12.2967583"><ele>207.0</ele><time>2026-04-03T13:57:48.727Z</time></trkpt><trkpt lat="44.0666117" lon="12.2965783"><ele>211.0</ele><time>2026-04-03T13:57:49.726Z</time></trkpt><trkpt lat="44.0665167" lon="12.2963817"><ele>212.66666666666666</ele><time>2026-04-03T13:57:50.726Z</time></trkpt><trkpt lat="44.0664167" lon="12.2961833"><ele>214.33333333333331</ele><time>2026-04-03T13:57:51.727Z</time></trkpt><trkpt lat="44.0663083" lon="12.2959783"><ele>216.0</ele><time>2026-04-03T13:57:52.727Z</time></trkpt><trkpt lat="44.0661983" lon="12.2957733"><ele>218.33333333333331</ele><time>2026-04-03T13:57:53.727Z</time></trkpt><trkpt lat="44.0660867" lon="12.295575"><ele>220.66666666666666</ele><time>2026-04-03T13:57:54.727Z</time></trkpt><trkpt lat="44.0659733" lon="12.2953833"><ele>223.0</ele><time>2026-04-03T13:57:55.726Z</time></trkpt><trkpt lat="44.065855" lon="12.2952067"><ele>225.33333333333331</ele><time>2026-04-03T13:57:56.73Z</time></trkpt><trkpt lat="44.0657333" lon="12.2950483"><ele>227.66666666666669</ele><time>2026-04-03T13:57:57.727Z</time></trkpt><trkpt lat="44.0655983" lon="12.2949"><ele>230.0</ele><time>2026-04-03T13:57:58.727Z</time></trkpt><trkpt lat="44.065465" lon="12.2947567"><ele>229.66666666666669</ele><time>2026-04-03T13:57:59.728Z</time></trkpt><trkpt lat="44.0653317" lon="12.2946083"><ele>229.33333333333331</ele><time>2026-04-03T13:58:00.729Z</time></trkpt><trkpt lat="44.0651917" lon="12.29447"><ele>229.0</ele><time>2026-04-03T13:58:01.727Z</time></trkpt><trkpt lat="44.0650517" lon="12.2943333"><ele>230.0</ele><time>2026-04-03T13:58:02.726Z</time></trkpt><trkpt lat="44.0649083" lon="12.294195"><ele>231.0</ele><time>2026-04-03T13:58:03.728Z</time></trkpt><trkpt lat="44.0647667" lon="12.294055"><ele>232.0</ele><time>2026-04-03T13:58:04.727Z</time></trkpt><trkpt lat="44.0646283" lon="12.2939117"><ele>232.0</ele><time>2026-04-03T13:58:05.726Z</time></trkpt><trkpt lat="44.0644933" lon="12.2937633"><ele>232.0</ele><time>2026-04-03T13:58:06.727Z</time></trkpt><trkpt lat="44.06436" lon="12.2936217"><ele>232.0</ele><time>2026-04-03T13:58:07.727Z</time></trkpt><trkpt lat="44.0642367" lon="12.2934817"><ele>232.0</ele><time>2026-04-03T13:58:08.727Z</time></trkpt><trkpt lat="44.0641183" lon="12.2933383"><ele>232.0</ele><time>2026-04-03T13:58:09.726Z</time></trkpt><trkpt lat="44.063995" lon="12.29319"><ele>232.0</ele><time>2026-04-03T13:58:10.728Z</time></trkpt><trkpt lat="44.0638733" lon="12.2930433"><ele>233.66666666666666</ele><time>2026-04-03T13:58:11.727Z</time></trkpt><trkpt lat="44.063745" lon="12.2929067"><ele>235.33333333333331</ele><time>2026-04-03T13:58:12.728Z</time></trkpt><trkpt lat="44.06361" lon="12.2927833"><ele>237.0</ele><time>2026-04-03T13:58:13.727Z</time></trkpt><trkpt lat="44.0634683" lon="12.2926683"><ele>237.0</ele><time>2026-04-03T13:58:14.728Z</time></trkpt><trkpt lat="44.0633133" lon="12.2925533"><ele>237.0</ele><time>2026-04-03T13:58:15.728Z</time></trkpt><trkpt lat="44.0631667" lon="12.2924467"><ele>237.0</ele><time>2026-04-03T13:58:16.725Z</time></trkpt><trkpt lat="44.0630267" lon="12.29235"><ele>238.75</ele><time>2026-04-03T13:58:17.725Z</time></trkpt><trkpt lat="44.0628933" lon="12.2922833"><ele>240.5</ele><time>2026-04-03T13:58:18.725Z</time></trkpt><trkpt lat="44.0627733" lon="12.2922667"><ele>242.25</ele><time>2026-04-03T13:58:19.727Z</time></trkpt><trkpt lat="44.0626567" lon="12.29231"><ele>244.0</ele><time>2026-04-03T13:58:20.727Z</time></trkpt><trkpt lat="44.0625433" lon="12.2924033"><ele>243.5</ele><time>2026-04-03T13:58:21.725Z</time></trkpt><trkpt lat="44.062435" lon="12.29251"><ele>243.0</ele><time>2026-04-03T13:58:22.725Z</time></trkpt><trkpt lat="44.0623317" lon="12.29262"><ele>242.5</ele><time>2026-04-03T13:58:23.726Z</time></trkpt><trkpt lat="44.0622283" lon="12.2927267"><ele>242.0</ele><time>2026-04-03T13:58:24.726Z</time></trkpt><trkpt lat="44.0621333" lon="12.292825"><ele>242.00000000000003</ele><time>2026-04-03T13:58:25.725Z</time></trkpt><trkpt lat="44.06205" lon="12.2929083"><ele>242.0</ele><time>2026-04-03T13:58:26.725Z</time></trkpt><trkpt lat="44.0619817" lon="12.2929717"><ele>242.0</ele><time>2026-04-03T13:58:27.727Z</time></trkpt><trkpt lat="44.0619267" lon="12.2930283"><ele>242.0</ele><time>2026-04-03T13:58:28.728Z</time></trkpt><trkpt lat="44.0618567" lon="12.2930833"><ele>242.00000000000003</ele><time>2026-04-03T13:58:30.728Z</time></trkpt><trkpt lat="44.0617717" lon="12.2930167"><ele>242.0</ele><time>2026-04-03T13:58:32.726Z</time></trkpt><trkpt lat="44.0617133" lon="12.2929483"><ele>242.0</ele><time>2026-04-03T13:58:33.726Z</time></trkpt><trkpt lat="44.06164" lon="12.292875"><ele>242.0</ele><time>2026-04-03T13:58:34.725Z</time></trkpt><trkpt lat="44.061565" lon="12.2928033"><ele>242.0</ele><time>2026-04-03T13:58:35.727Z</time></trkpt><trkpt lat="44.0614917" lon="12.2927267"><ele>242.0</ele><time>2026-04-03T13:58:36.725Z</time></trkpt><trkpt lat="44.0614083" lon="12.2926483"><ele>242.0</ele><time>2026-04-03T13:58:37.725Z</time></trkpt><trkpt lat="44.0613133" lon="12.2925667"><ele>243.0</ele><time>2026-04-03T13:58:38.725Z</time></trkpt><trkpt lat="44.06121" lon="12.2924883"><ele>244.0</ele><time>2026-04-03T13:58:39.726Z</time></trkpt><trkpt lat="44.0611117" lon="12.29242"><ele>245.0</ele><time>2026-04-03T13:58:40.731Z</time></trkpt><trkpt lat="44.0610267" lon="12.2923683"><ele>246.0</ele><time>2026-04-03T13:58:41.727Z</time></trkpt><trkpt lat="44.060945" lon="12.2923283"><ele>247.0</ele><time>2026-04-03T13:58:42.726Z</time></trkpt><trkpt lat="44.060865" lon="12.2923083"><ele>247.33333333333331</ele><time>2026-04-03T13:58:43.726Z</time></trkpt><trkpt lat="44.06078" lon="12.292295"><ele>247.66666666666666</ele><time>2026-04-03T13:58:44.726Z</time></trkpt><trkpt lat="44.0606983" lon="12.29229"><ele>248.0</ele><time>2026-04-03T13:58:45.726Z</time></trkpt><trkpt lat="44.0606183" lon="12.29229"><ele>248.33333333333331</ele><time>2026-04-03T13:58:46.726Z</time></trkpt><trkpt lat="44.060555" lon="12.29229"><ele>248.66666666666666</ele><time>2026-04-03T13:58:47.727Z</time></trkpt><trkpt lat="44.0606367" lon="12.2923167"><ele>249.0</ele><time>2026-04-03T13:58:55.725Z</time></trkpt><trkpt lat="44.0607667" lon="12.292315"><ele>248.66666666666666</ele><time>2026-04-03T13:58:57.725Z</time></trkpt><trkpt lat="44.0608417" lon="12.2923183"><ele>248.33333333333331</ele><time>2026-04-03T13:58:58.726Z</time></trkpt><trkpt lat="44.0609133" lon="12.292335"><ele>248.0</ele><time>2026-04-03T13:58:59.727Z</time></trkpt><trkpt lat="44.060995" lon="12.2923583"><ele>247.66666666666666</ele><time>2026-04-03T13:59:00.726Z</time></trkpt><trkpt lat="44.0610833" lon="12.2923967"><ele>247.33333333333331</ele><time>2026-04-03T13:59:01.729Z</time></trkpt><trkpt lat="44.06117" lon="12.292445"><ele>247.0</ele><time>2026-04-03T13:59:02.726Z</time></trkpt><trkpt lat="44.06125" lon="12.292505"><ele>246.99999999999997</ele><time>2026-04-03T13:59:03.729Z</time></trkpt><trkpt lat="44.061315" lon="12.2925617"><ele>247.0</ele><time>2026-04-03T13:59:04.727Z</time></trkpt><trkpt lat="44.06137" lon="12.2926133"><ele>247.0</ele><time>2026-04-03T13:59:05.728Z</time></trkpt><trkpt lat="44.0614467" lon="12.2926783"><ele>247.0</ele><time>2026-04-03T13:59:07.727Z</time></trkpt><trkpt lat="44.0613733" lon="12.29255"><ele>246.99999999999997</ele><time>2026-04-03T13:59:13.73Z</time></trkpt><trkpt lat="44.06133" lon="12.2924733"><ele>247.0</ele><time>2026-04-03T13:59:14.729Z</time></trkpt><trkpt lat="44.0612817" lon="12.292365"><ele>244.25</ele><time>2026-04-03T13:59:15.729Z</time></trkpt><trkpt lat="44.0612333" lon="12.2922383"><ele>241.5</ele><time>2026-04-03T13:59:16.726Z</time></trkpt><trkpt lat="44.0611617" lon="12.2920817"><ele>238.75</ele><time>2026-04-03T13:59:17.725Z</time></trkpt><trkpt lat="44.061085" lon="12.2919083"><ele>236.0</ele><time>2026-04-03T13:59:18.728Z</time></trkpt><trkpt lat="44.0610033" lon="12.2917283"><ele>236.0</ele><time>2026-04-03T13:59:19.725Z</time></trkpt><trkpt lat="44.0609233" lon="12.2915517"><ele>236.0</ele><time>2026-04-03T13:59:20.728Z</time></trkpt><trkpt lat="44.0608333" lon="12.291375"><ele>236.0</ele><time>2026-04-03T13:59:21.725Z</time></trkpt><trkpt lat="44.0607367" lon="12.2911967"><ele>235.66666666666669</ele><time>2026-04-03T13:59:22.726Z</time></trkpt><trkpt lat="44.060635" lon="12.2910167"><ele>235.33333333333331</ele><time>2026-04-03T13:59:23.728Z</time></trkpt><trkpt lat="44.0605333" lon="12.290825"><ele>235.0</ele><time>2026-04-03T13:59:24.73Z</time></trkpt><trkpt lat="44.0604433" lon="12.2906283"><ele>231.0</ele><time>2026-04-03T13:59:25.729Z</time></trkpt><trkpt lat="44.0603617" lon="12.29043"><ele>227.0</ele><time>2026-04-03T13:59:26.732Z</time></trkpt><trkpt lat="44.06028" lon="12.2902333"><ele>223.0</ele><time>2026-04-03T13:59:27.726Z</time></trkpt><trkpt lat="44.0601983" lon="12.2900383"><ele>223.0</ele><time>2026-04-03T13:59:28.726Z</time></trkpt><trkpt lat="44.0601117" lon="12.2898483"><ele>223.0</ele><time>2026-04-03T13:59:29.726Z</time></trkpt><trkpt lat="44.06003" lon="12.2896567"><ele>223.0</ele><time>2026-04-03T13:59:30.729Z</time></trkpt><trkpt lat="44.0599517" lon="12.2894683"><ele>232.0</ele><time>2026-04-03T13:59:31.729Z</time></trkpt><trkpt lat="44.05989" lon="12.2892733"><ele>241.0</ele><time>2026-04-03T13:59:32.725Z</time></trkpt><trkpt lat="44.0598517" lon="12.2890733"><ele>250.0</ele><time>2026-04-03T13:59:33.729Z</time></trkpt><trkpt lat="44.0598433" lon="12.2888633"><ele>251.33333333333331</ele><time>2026-04-03T13:59:34.726Z</time></trkpt><trkpt lat="44.059855" lon="12.28865"><ele>252.66666666666669</ele><time>2026-04-03T13:59:35.73Z</time></trkpt><trkpt lat="44.059865" lon="12.2884383"><ele>254.0</ele><time>2026-04-03T13:59:36.728Z</time></trkpt><trkpt lat="44.0598733" lon="12.2882317"><ele>250.75</ele><time>2026-04-03T13:59:37.726Z</time></trkpt><trkpt lat="44.0598767" lon="12.2880517"><ele>247.5</ele><time>2026-04-03T13:59:38.726Z</time></trkpt><trkpt lat="44.0598617" lon="12.2879"><ele>244.25</ele><time>2026-04-03T13:59:39.728Z</time></trkpt><trkpt lat="44.05982" lon="12.2877583"><ele>241.0</ele><time>2026-04-03T13:59:40.726Z</time></trkpt><trkpt lat="44.0597667" lon="12.2876067"><ele>241.0</ele><time>2026-04-03T13:59:41.729Z</time></trkpt><trkpt lat="44.0597067" lon="12.2874417"><ele>241.0</ele><time>2026-04-03T13:59:42.728Z</time></trkpt><trkpt lat="44.059635" lon="12.2872733"><ele>241.0</ele><time>2026-04-03T13:59:43.725Z</time></trkpt><trkpt lat="44.059545" lon="12.28711"><ele>241.0</ele><time>2026-04-03T13:59:44.726Z</time></trkpt><trkpt lat="44.0594433" lon="12.2869517"><ele>237.0</ele><time>2026-04-03T13:59:45.725Z</time></trkpt><trkpt lat="44.0593417" lon="12.2868"><ele>233.0</ele><time>2026-04-03T13:59:46.729Z</time></trkpt><trkpt lat="44.0592433" lon="12.2866533"><ele>229.0</ele><time>2026-04-03T13:59:47.731Z</time></trkpt><trkpt lat="44.05917" lon="12.2865133"><ele>225.0</ele><time>2026-04-03T13:59:48.728Z</time></trkpt><trkpt lat="44.0591283" lon="12.28637"><ele>224.4</ele><time>2026-04-03T13:59:49.728Z</time></trkpt><trkpt lat="44.0591133" lon="12.2862283"><ele>223.8</ele><time>2026-04-03T13:59:50.729Z</time></trkpt><trkpt lat="44.0591383" lon="12.286095"><ele>223.2</ele><time>2026-04-03T13:59:51.728Z</time></trkpt><trkpt lat="44.059195" lon="12.2859633"><ele>222.6</ele><time>2026-04-03T13:59:52.728Z</time></trkpt><trkpt lat="44.0592517" lon="12.2858333"><ele>222.0</ele><time>2026-04-03T13:59:53.726Z</time></trkpt><trkpt lat="44.0593017" lon="12.2856967"><ele>221.8</ele><time>2026-04-03T13:59:54.727Z</time></trkpt><trkpt lat="44.0593467" lon="12.2855633"><ele>221.6</ele><time>2026-04-03T13:59:55.729Z</time></trkpt><trkpt lat="44.05938" lon="12.28545"><ele>221.40000000000003</ele><time>2026-04-03T13:59:56.727Z</time></trkpt><trkpt lat="44.0594" lon="12.28535"><ele>221.20000000000002</ele><time>2026-04-03T13:59:57.726Z</time></trkpt><trkpt lat="44.0593783" lon="12.2851883"><ele>221.0</ele><time>2026-04-03T13:59:59.727Z</time></trkpt><trkpt lat="44.05935" lon="12.2851017"><ele>221.0</ele><time>2026-04-03T14:00:00.726Z</time></trkpt><trkpt lat="44.059335" lon="12.28499"><ele>221.00000000000003</ele><time>2026-04-03T14:00:01.729Z</time></trkpt><trkpt lat="44.0593183" lon="12.2848617"><ele>221.00000000000003</ele><time>2026-04-03T14:00:02.728Z</time></trkpt><trkpt lat="44.059305" lon="12.2847133"><ele>221.0</ele><time>2026-04-03T14:00:03.727Z</time></trkpt><trkpt lat="44.0592967" lon="12.2845517"><ele>221.0</ele><time>2026-04-03T14:00:04.727Z</time></trkpt><trkpt lat="44.0592933" lon="12.2843783"><ele>218.75</ele><time>2026-04-03T14:00:05.727Z</time></trkpt><trkpt lat="44.059295" lon="12.2841983"><ele>216.5</ele><time>2026-04-03T14:00:06.727Z</time></trkpt><trkpt lat="44.0593183" lon="12.2840217"><ele>214.25</ele><time>2026-04-03T14:00:07.727Z</time></trkpt><trkpt lat="44.0593567" lon="12.2838517"><ele>212.0</ele><time>2026-04-03T14:00:08.726Z</time></trkpt><trkpt lat="44.0594017" lon="12.283695"><ele>210.83333333333334</ele><time>2026-04-03T14:00:09.726Z</time></trkpt><trkpt lat="44.059445" lon="12.2835483"><ele>209.66666666666669</ele><time>2026-04-03T14:00:10.727Z</time></trkpt><trkpt lat="44.05948" lon="12.2834217"><ele>208.5</ele><time>2026-04-03T14:00:11.73Z</time></trkpt><trkpt lat="44.059505" lon="12.2833233"><ele>207.33333333333331</ele><time>2026-04-03T14:00:12.728Z</time></trkpt><trkpt lat="44.05953" lon="12.283235"><ele>206.16666666666666</ele><time>2026-04-03T14:00:13.728Z</time></trkpt><trkpt lat="44.0595633" lon="12.2831417"><ele>205.0</ele><time>2026-04-03T14:00:14.728Z</time></trkpt><trkpt lat="44.0596017" lon="12.28303"><ele>202.8</ele><time>2026-04-03T14:00:15.725Z</time></trkpt><trkpt lat="44.05963" lon="12.2828983"><ele>200.6</ele><time>2026-04-03T14:00:16.729Z</time></trkpt><trkpt lat="44.0596467" lon="12.2827517"><ele>198.39999999999998</ele><time>2026-04-03T14:00:17.726Z</time></trkpt><trkpt lat="44.0596683" lon="12.2825967"><ele>196.2</ele><time>2026-04-03T14:00:18.728Z</time></trkpt><trkpt lat="44.059705" lon="12.2824433"><ele>194.0</ele><time>2026-04-03T14:00:19.726Z</time></trkpt><trkpt lat="44.0597567" lon="12.28229"><ele>193.25</ele><time>2026-04-03T14:00:20.726Z</time></trkpt><trkpt lat="44.059825" lon="12.282135"><ele>192.5</ele><time>2026-04-03T14:00:21.726Z</time></trkpt><trkpt lat="44.0599067" lon="12.2819817"><ele>191.75</ele><time>2026-04-03T14:00:22.729Z</time></trkpt><trkpt lat="44.059995" lon="12.2818283"><ele>191.0</ele><time>2026-04-03T14:00:23.726Z</time></trkpt><trkpt lat="44.0600767" lon="12.281675"><ele>191.0</ele><time>2026-04-03T14:00:24.727Z</time></trkpt><trkpt lat="44.0601467" lon="12.28151"><ele>191.0</ele><time>2026-04-03T14:00:25.727Z</time></trkpt><trkpt lat="44.0602083" lon="12.2813367"><ele>191.0</ele><time>2026-04-03T14:00:26.729Z</time></trkpt><trkpt lat="44.0602583" lon="12.281165"><ele>191.0</ele><time>2026-04-03T14:00:27.726Z</time></trkpt><trkpt lat="44.06029" lon="12.2809817"><ele>188.25</ele><time>2026-04-03T14:00:28.729Z</time></trkpt><trkpt lat="44.06031" lon="12.280795"><ele>185.5</ele><time>2026-04-03T14:00:29.725Z</time></trkpt><trkpt lat="44.0603267" lon="12.280605"><ele>182.75</ele><time>2026-04-03T14:00:30.728Z</time></trkpt><trkpt lat="44.060345" lon="12.280415"><ele>180.0</ele><time>2026-04-03T14:00:31.725Z</time></trkpt><trkpt lat="44.0603667" lon="12.2802233"><ele>178.25</ele><time>2026-04-03T14:00:32.726Z</time></trkpt><trkpt lat="44.060395" lon="12.28004"><ele>176.5</ele><time>2026-04-03T14:00:33.726Z</time></trkpt><trkpt lat="44.0604283" lon="12.279875"><ele>174.75</ele><time>2026-04-03T14:00:34.727Z</time></trkpt><trkpt lat="44.0604683" lon="12.2797317"><ele>173.0</ele><time>2026-04-03T14:00:35.726Z</time></trkpt><trkpt lat="44.060515" lon="12.2796217"><ele>171.2</ele><time>2026-04-03T14:00:36.727Z</time></trkpt><trkpt lat="44.0605617" lon="12.27953"><ele>169.4</ele><time>2026-04-03T14:00:37.725Z</time></trkpt><trkpt lat="44.0606167" lon="12.279455"><ele>167.6</ele><time>2026-04-03T14:00:38.726Z</time></trkpt><trkpt lat="44.0606817" lon="12.27941"><ele>165.79999999999998</ele><time>2026-04-03T14:00:39.729Z</time></trkpt><trkpt lat="44.06077" lon="12.27946"><ele>164.0</ele><time>2026-04-03T14:00:40.725Z</time></trkpt><trkpt lat="44.0608833" lon="12.2795717"><ele>162.0</ele><time>2026-04-03T14:00:41.727Z</time></trkpt><trkpt lat="44.06098" lon="12.2796667"><ele>160.0</ele><time>2026-04-03T14:00:42.726Z</time></trkpt><trkpt lat="44.0610517" lon="12.2796983"><ele>158.0</ele><time>2026-04-03T14:00:43.725Z</time></trkpt><trkpt lat="44.0611317" lon="12.2796333"><ele>156.0</ele><time>2026-04-03T14:00:45.73Z</time></trkpt><trkpt lat="44.0611283" lon="12.27948"><ele>154.0</ele><time>2026-04-03T14:00:47.729Z</time></trkpt><trkpt lat="44.0610783" lon="12.279355"><ele>154.0</ele><time>2026-04-03T14:00:48.73Z</time></trkpt><trkpt lat="44.0610417" lon="12.2792283"><ele>154.0</ele><time>2026-04-03T14:00:49.729Z</time></trkpt><trkpt lat="44.060975" lon="12.2790467"><ele>154.0</ele><time>2026-04-03T14:00:50.73Z</time></trkpt><trkpt lat="44.060935" lon="12.2788367"><ele>154.0</ele><time>2026-04-03T14:00:51.728Z</time></trkpt><trkpt lat="44.06091" lon="12.278645"><ele>151.0</ele><time>2026-04-03T14:00:52.73Z</time></trkpt><trkpt lat="44.0609017" lon="12.2784583"><ele>148.0</ele><time>2026-04-03T14:00:53.73Z</time></trkpt><trkpt lat="44.0609" lon="12.27827"><ele>145.0</ele><time>2026-04-03T14:00:54.726Z</time></trkpt><trkpt lat="44.0608967" lon="12.2780833"><ele>142.0</ele><time>2026-04-03T14:00:55.726Z</time></trkpt><trkpt lat="44.0608917" lon="12.2778983"><ele>139.0</ele><time>2026-04-03T14:00:56.726Z</time></trkpt><trkpt lat="44.0608883" lon="12.27772"><ele>136.0</ele><time>2026-04-03T14:00:57.726Z</time></trkpt><trkpt lat="44.0609" lon="12.2775517"><ele>133.0</ele><time>2026-04-03T14:00:58.731Z</time></trkpt><trkpt lat="44.0609317" lon="12.2773983"><ele>130.0</ele><time>2026-04-03T14:00:59.725Z</time></trkpt><trkpt lat="44.0609783" lon="12.2772617"><ele>128.5</ele><time>2026-04-03T14:01:00.725Z</time></trkpt><trkpt lat="44.0610333" lon="12.2771367"><ele>127.0</ele><time>2026-04-03T14:01:01.725Z</time></trkpt><trkpt lat="44.0610933" lon="12.27701"><ele>125.5</ele><time>2026-04-03T14:01:02.726Z</time></trkpt><trkpt lat="44.06116" lon="12.2768733"><ele>124.0</ele><time>2026-04-03T14:01:03.726Z</time></trkpt><trkpt lat="44.0612417" lon="12.2767333"><ele>124.0</ele><time>2026-04-03T14:01:04.726Z</time></trkpt><trkpt lat="44.06133" lon="12.2765833"><ele>124.0</ele><time>2026-04-03T14:01:05.729Z</time></trkpt><trkpt lat="44.0614267" lon="12.2764283"><ele>124.0</ele><time>2026-04-03T14:01:06.725Z</time></trkpt><trkpt lat="44.0615267" lon="12.2762717"><ele>124.0</ele><time>2026-04-03T14:01:07.726Z</time></trkpt><trkpt lat="44.0616267" lon="12.27611"><ele>119.66666666666667</ele><time>2026-04-03T14:01:08.726Z</time></trkpt><trkpt lat="44.0617233" lon="12.2759517"><ele>115.33333333333334</ele><time>2026-04-03T14:01:09.725Z</time></trkpt><trkpt lat="44.0618183" lon="12.27578"><ele>111.0</ele><time>2026-04-03T14:01:10.728Z</time></trkpt><trkpt lat="44.0619" lon="12.2756033"><ele>108.5</ele><time>2026-04-03T14:01:11.726Z</time></trkpt><trkpt lat="44.0619733" lon="12.275425"><ele>106.0</ele><time>2026-04-03T14:01:12.727Z</time></trkpt><trkpt lat="44.0620383" lon="12.2752483"><ele>103.5</ele><time>2026-04-03T14:01:13.727Z</time></trkpt><trkpt lat="44.0621" lon="12.2750667"><ele>101.0</ele><time>2026-04-03T14:01:14.728Z</time></trkpt><trkpt lat="44.062155" lon="12.2748917"><ele>101.0</ele><time>2026-04-03T14:01:15.726Z</time></trkpt><trkpt lat="44.0622017" lon="12.27473"><ele>101.0</ele><time>2026-04-03T14:01:16.726Z</time></trkpt><trkpt lat="44.062255" lon="12.2745833"><ele>101.0</ele><time>2026-04-03T14:01:17.727Z</time></trkpt><trkpt lat="44.062325" lon="12.2744683"><ele>101.0</ele><time>2026-04-03T14:01:18.728Z</time></trkpt><trkpt lat="44.0624133" lon="12.274385"><ele>98.5</ele><time>2026-04-03T14:01:19.726Z</time></trkpt><trkpt lat="44.0625183" lon="12.2743217"><ele>96.0</ele><time>2026-04-03T14:01:20.727Z</time></trkpt><trkpt lat="44.0626333" lon="12.2742667"><ele>93.5</ele><time>2026-04-03T14:01:21.726Z</time></trkpt><trkpt lat="44.0627483" lon="12.2742367"><ele>91.0</ele><time>2026-04-03T14:01:22.727Z</time></trkpt><trkpt lat="44.0628633" lon="12.274235"><ele>91.0</ele><time>2026-04-03T14:01:23.726Z</time></trkpt><trkpt lat="44.0629817" lon="12.2742633"><ele>91.0</ele><time>2026-04-03T14:01:24.728Z</time></trkpt><trkpt lat="44.0631033" lon="12.2743117"><ele>91.0</ele><time>2026-04-03T14:01:25.728Z</time></trkpt><trkpt lat="44.063235" lon="12.274365"><ele>91.0</ele><time>2026-04-03T14:01:26.727Z</time></trkpt><trkpt lat="44.0633667" lon="12.2744167"><ele>91.25</ele><time>2026-04-03T14:01:27.726Z</time></trkpt><trkpt lat="44.0634867" lon="12.2744733"><ele>91.5</ele><time>2026-04-03T14:01:28.728Z</time></trkpt><trkpt lat="44.0635933" lon="12.2745633"><ele>91.75</ele><time>2026-04-03T14:01:29.727Z</time></trkpt><trkpt lat="44.0637" lon="12.2746833"><ele>92.0</ele><time>2026-04-03T14:01:30.726Z</time></trkpt><trkpt lat="44.063805" lon="12.2748083"><ele>93.75</ele><time>2026-04-03T14:01:31.726Z</time></trkpt><trkpt lat="44.0639167" lon="12.2749167"><ele>95.5</ele><time>2026-04-03T14:01:32.726Z</time></trkpt><trkpt lat="44.064035" lon="12.2749917"><ele>97.25</ele><time>2026-04-03T14:01:33.726Z</time></trkpt><trkpt lat="44.064155" lon="12.2750467"><ele>99.0</ele><time>2026-04-03T14:01:34.73Z</time></trkpt><trkpt lat="44.0642617" lon="12.2750867"><ele>99.0</ele><time>2026-04-03T14:01:35.729Z</time></trkpt><trkpt lat="44.0643517" lon="12.2751333"><ele>99.0</ele><time>2026-04-03T14:01:36.725Z</time></trkpt><trkpt lat="44.0644433" lon="12.2751917"><ele>99.0</ele><time>2026-04-03T14:01:37.726Z</time></trkpt><trkpt lat="44.06454" lon="12.2752667"><ele>99.0</ele><time>2026-04-03T14:01:38.73Z</time></trkpt><trkpt lat="44.0646417" lon="12.2753617"><ele>99.0</ele><time>2026-04-03T14:01:39.73Z</time></trkpt><trkpt lat="44.06474" lon="12.2754717"><ele>99.0</ele><time>2026-04-03T14:01:40.73Z</time></trkpt><trkpt lat="44.0648383" lon="12.2755917"><ele>99.0</ele><time>2026-04-03T14:01:41.729Z</time></trkpt><trkpt lat="44.06494" lon="12.275715"><ele>99.0</ele><time>2026-04-03T14:01:42.727Z</time></trkpt><trkpt lat="44.0650417" lon="12.2758433"><ele>99.0</ele><time>2026-04-03T14:01:43.73Z</time></trkpt><trkpt lat="44.0651467" lon="12.2759733"><ele>99.0</ele><time>2026-04-03T14:01:44.73Z</time></trkpt><trkpt lat="44.0652517" lon="12.276105"><ele>99.0</ele><time>2026-04-03T14:01:45.729Z</time></trkpt><trkpt lat="44.0653667" lon="12.27624"><ele>99.0</ele><time>2026-04-03T14:01:46.726Z</time></trkpt><trkpt lat="44.0654817" lon="12.2763817"><ele>99.0</ele><time>2026-04-03T14:01:47.73Z</time></trkpt><trkpt lat="44.065595" lon="12.27652"><ele>98.75</ele><time>2026-04-03T14:01:48.729Z</time></trkpt><trkpt lat="44.06571" lon="12.276655"><ele>98.5</ele><time>2026-04-03T14:01:49.731Z</time></trkpt><trkpt lat="44.0658183" lon="12.2767883"><ele>98.25</ele><time>2026-04-03T14:01:50.729Z</time></trkpt><trkpt lat="44.0659183" lon="12.2769183"><ele>98.0</ele><time>2026-04-03T14:01:51.727Z</time></trkpt><trkpt lat="44.0660067" lon="12.27705"><ele>98.0</ele><time>2026-04-03T14:01:52.729Z</time></trkpt><trkpt lat="44.0660783" lon="12.277185"><ele>98.0</ele><time>2026-04-03T14:01:53.729Z</time></trkpt><trkpt lat="44.0661317" lon="12.2773267"><ele>98.0</ele><time>2026-04-03T14:01:54.729Z</time></trkpt><trkpt lat="44.0661683" lon="12.277475"><ele>98.0</ele><time>2026-04-03T14:01:55.728Z</time></trkpt><trkpt lat="44.0661983" lon="12.2776167"><ele>99.80000000000001</ele><time>2026-04-03T14:01:56.728Z</time></trkpt><trkpt lat="44.0662217" lon="12.27774"><ele>101.6</ele><time>2026-04-03T14:01:57.725Z</time></trkpt><trkpt lat="44.066245" lon="12.27784"><ele>103.39999999999999</ele><time>2026-04-03T14:01:58.726Z</time></trkpt><trkpt lat="44.0663117" lon="12.277945"><ele>105.19999999999999</ele><time>2026-04-03T14:02:00.726Z</time></trkpt><trkpt lat="44.0664267" lon="12.277915"><ele>107.0</ele><time>2026-04-03T14:02:02.727Z</time></trkpt><trkpt lat="44.066505" lon="12.2778233"><ele>107.0</ele><time>2026-04-03T14:02:03.727Z</time></trkpt><trkpt lat="44.0666033" lon="12.2777167"><ele>107.0</ele><time>2026-04-03T14:02:04.727Z</time></trkpt><trkpt lat="44.0667083" lon="12.2776117"><ele>107.0</ele><time>2026-04-03T14:02:05.727Z</time></trkpt><trkpt lat="44.0668183" lon="12.2775083"><ele>107.0</ele><time>2026-04-03T14:02:06.727Z</time></trkpt><trkpt lat="44.0669233" lon="12.2774117"><ele>104.19999999999999</ele><time>2026-04-03T14:02:07.726Z</time></trkpt><trkpt lat="44.0670083" lon="12.2773317"><ele>101.39999999999999</ele><time>2026-04-03T14:02:08.726Z</time></trkpt><trkpt lat="44.0670883" lon="12.2772717"><ele>98.6</ele><time>2026-04-03T14:02:09.726Z</time></trkpt><trkpt lat="44.06717" lon="12.277225"><ele>95.80000000000001</ele><time>2026-04-03T14:02:10.728Z</time></trkpt><trkpt lat="44.0672533" lon="12.2772033"><ele>93.0</ele><time>2026-04-03T14:02:11.732Z</time></trkpt><trkpt lat="44.067355" lon="12.2772"><ele>90.0</ele><time>2026-04-03T14:02:12.729Z</time></trkpt><trkpt lat="44.0674833" lon="12.277215"><ele>87.0</ele><time>2026-04-03T14:02:13.727Z</time></trkpt><trkpt lat="44.067615" lon="12.2772283"><ele>84.0</ele><time>2026-04-03T14:02:14.729Z</time></trkpt><trkpt lat="44.0677467" lon="12.2772317"><ele>81.0</ele><time>2026-04-03T14:02:15.729Z</time></trkpt><trkpt lat="44.0678817" lon="12.2772317"><ele>81.0</ele><time>2026-04-03T14:02:16.728Z</time></trkpt><trkpt lat="44.06802" lon="12.2772433"><ele>81.0</ele><time>2026-04-03T14:02:17.729Z</time></trkpt><trkpt lat="44.068155" lon="12.2772467"><ele>81.0</ele><time>2026-04-03T14:02:18.729Z</time></trkpt><trkpt lat="44.0682867" lon="12.277225"><ele>81.0</ele><time>2026-04-03T14:02:19.729Z</time></trkpt><trkpt lat="44.068405" lon="12.2771767"><ele>79.8</ele><time>2026-04-03T14:02:20.73Z</time></trkpt><trkpt lat="44.06851" lon="12.27711"><ele>78.6</ele><time>2026-04-03T14:02:21.727Z</time></trkpt><trkpt lat="44.0685967" lon="12.2770417"><ele>77.4</ele><time>2026-04-03T14:02:22.729Z</time></trkpt><trkpt lat="44.0686717" lon="12.2769917"><ele>76.2</ele><time>2026-04-03T14:02:23.728Z</time></trkpt><trkpt lat="44.0687467" lon="12.2769667"><ele>75.0</ele><time>2026-04-03T14:02:24.729Z</time></trkpt><trkpt lat="44.0688233" lon="12.2769683"><ele>75.0</ele><time>2026-04-03T14:02:25.727Z</time></trkpt><trkpt lat="44.068905" lon="12.2769917"><ele>75.0</ele><time>2026-04-03T14:02:26.726Z</time></trkpt><trkpt lat="44.0689867" lon="12.2770467"><ele>75.0</ele><time>2026-04-03T14:02:27.728Z</time></trkpt><trkpt lat="44.0690733" lon="12.2771367"><ele>75.0</ele><time>2026-04-03T14:02:28.724Z</time></trkpt><trkpt lat="44.069155" lon="12.2772567"><ele>75.0</ele><time>2026-04-03T14:02:29.726Z</time></trkpt><trkpt lat="44.069235" lon="12.2773833"><ele>74.75</ele><time>2026-04-03T14:02:30.727Z</time></trkpt><trkpt lat="44.069315" lon="12.27751"><ele>74.5</ele><time>2026-04-03T14:02:31.726Z</time></trkpt><trkpt lat="44.0693983" lon="12.277635"><ele>74.25</ele><time>2026-04-03T14:02:32.725Z</time></trkpt><trkpt lat="44.06948" lon="12.2777567"><ele>74.0</ele><time>2026-04-03T14:02:33.725Z</time></trkpt><trkpt lat="44.0695567" lon="12.2778783"><ele>74.0</ele><time>2026-04-03T14:02:34.726Z</time></trkpt><trkpt lat="44.069625" lon="12.2779933"><ele>74.0</ele><time>2026-04-03T14:02:35.726Z</time></trkpt><trkpt lat="44.06969" lon="12.2780917"><ele>74.0</ele><time>2026-04-03T14:02:36.724Z</time></trkpt><trkpt lat="44.0697417" lon="12.2781683"><ele>74.0</ele><time>2026-04-03T14:02:37.726Z</time></trkpt><trkpt lat="44.0698167" lon="12.2782467"><ele>74.0</ele><time>2026-04-03T14:02:39.725Z</time></trkpt><trkpt lat="44.06983" lon="12.278135"><ele>74.0</ele><time>2026-04-03T14:02:48.725Z</time></trkpt><trkpt lat="44.0698067" lon="12.2780283"><ele>74.0</ele><time>2026-04-03T14:02:49.724Z</time></trkpt><trkpt lat="44.06978" lon="12.2778783"><ele>74.0</ele><time>2026-04-03T14:02:50.725Z</time></trkpt><trkpt lat="44.06975" lon="12.2776933"><ele>74.0</ele><time>2026-04-03T14:02:51.729Z</time></trkpt><trkpt lat="44.0697183" lon="12.277495"><ele>74.0</ele><time>2026-04-03T14:02:52.729Z</time></trkpt><trkpt lat="44.069685" lon="12.2772833"><ele>74.0</ele><time>2026-04-03T14:02:53.725Z</time></trkpt><trkpt lat="44.0696517" lon="12.2770533"><ele>74.0</ele><time>2026-04-03T14:02:54.726Z</time></trkpt><trkpt lat="44.0696183" lon="12.2768183"><ele>75.33333333333334</ele><time>2026-04-03T14:02:55.727Z</time></trkpt><trkpt lat="44.06958" lon="12.2765933"><ele>76.66666666666667</ele><time>2026-04-03T14:02:56.725Z</time></trkpt><trkpt lat="44.0695333" lon="12.27638"><ele>78.0</ele><time>2026-04-03T14:02:57.725Z</time></trkpt><trkpt lat="44.069475" lon="12.2761833"><ele>79.33333333333333</ele><time>2026-04-03T14:02:58.727Z</time></trkpt><trkpt lat="44.0694" lon="12.2759983"><ele>80.66666666666666</ele><time>2026-04-03T14:02:59.725Z</time></trkpt><trkpt lat="44.069305" lon="12.2758233"><ele>82.0</ele><time>2026-04-03T14:03:00.726Z</time></trkpt><trkpt lat="44.06919" lon="12.2756617"><ele>80.0</ele><time>2026-04-03T14:03:01.725Z</time></trkpt><trkpt lat="44.06906" lon="12.27552"><ele>78.0</ele><time>2026-04-03T14:03:02.729Z</time></trkpt><trkpt lat="44.0689183" lon="12.275405"><ele>76.0</ele><time>2026-04-03T14:03:03.731Z</time></trkpt><trkpt lat="44.0687717" lon="12.2753133"><ele>76.0</ele><time>2026-04-03T14:03:04.73Z</time></trkpt><trkpt lat="44.0686217" lon="12.2752533"><ele>76.0</ele><time>2026-04-03T14:03:05.729Z</time></trkpt><trkpt lat="44.0684683" lon="12.27522"><ele>76.0</ele><time>2026-04-03T14:03:06.725Z</time></trkpt><trkpt lat="44.0683117" lon="12.2752"><ele>75.66666666666666</ele><time>2026-04-03T14:03:07.725Z</time></trkpt><trkpt lat="44.0681433" lon="12.2751883"><ele>75.33333333333333</ele><time>2026-04-03T14:03:08.727Z</time></trkpt><trkpt lat="44.06798" lon="12.2751667"><ele>75.0</ele><time>2026-04-03T14:03:09.726Z</time></trkpt><trkpt lat="44.0678233" lon="12.275115"><ele>75.0</ele><time>2026-04-03T14:03:10.725Z</time></trkpt><trkpt lat="44.06766" lon="12.2750383"><ele>75.0</ele><time>2026-04-03T14:03:11.725Z</time></trkpt><trkpt lat="44.0675017" lon="12.2749333"><ele>75.0</ele><time>2026-04-03T14:03:12.725Z</time></trkpt><trkpt lat="44.067345" lon="12.2748083"><ele>76.33333333333333</ele><time>2026-04-03T14:03:13.726Z</time></trkpt><trkpt lat="44.0671883" lon="12.2746583"><ele>77.66666666666666</ele><time>2026-04-03T14:03:14.729Z</time></trkpt><trkpt lat="44.067035" lon="12.2745017"><ele>79.0</ele><time>2026-04-03T14:03:15.729Z</time></trkpt><trkpt lat="44.066885" lon="12.274335"><ele>79.0</ele><time>2026-04-03T14:03:16.73Z</time></trkpt><trkpt lat="44.066745" lon="12.27417"><ele>79.0</ele><time>2026-04-03T14:03:17.726Z</time></trkpt><trkpt lat="44.0666117" lon="12.2739917"><ele>79.0</ele><time>2026-04-03T14:03:18.726Z</time></trkpt><trkpt lat="44.0664883" lon="12.2738033"><ele>79.0</ele><time>2026-04-03T14:03:19.727Z</time></trkpt><trkpt lat="44.0663733" lon="12.2736133"><ele>79.0</ele><time>2026-04-03T14:03:20.726Z</time></trkpt><trkpt lat="44.0662667" lon="12.2734333"><ele>79.0</ele><time>2026-04-03T14:03:21.726Z</time></trkpt><trkpt lat="44.06619" lon="12.27325"><ele>80.0</ele><time>2026-04-03T14:03:22.727Z</time></trkpt><trkpt lat="44.06615" lon="12.2730433"><ele>81.0</ele><time>2026-04-03T14:03:23.726Z</time></trkpt><trkpt lat="44.0661433" lon="12.2728167"><ele>82.0</ele><time>2026-04-03T14:03:24.726Z</time></trkpt><trkpt lat="44.066125" lon="12.2726133"><ele>82.0</ele><time>2026-04-03T14:03:25.727Z</time></trkpt><trkpt lat="44.0660683" lon="12.2724417"><ele>82.0</ele><time>2026-04-03T14:03:26.727Z</time></trkpt><trkpt lat="44.0659767" lon="12.2723"><ele>82.0</ele><time>2026-04-03T14:03:27.727Z</time></trkpt><trkpt lat="44.06584" lon="12.2721933"><ele>82.0</ele><time>2026-04-03T14:03:28.727Z</time></trkpt><trkpt lat="44.0656817" lon="12.2721367"><ele>81.33333333333333</ele><time>2026-04-03T14:03:29.727Z</time></trkpt><trkpt lat="44.0655033" lon="12.2721083"><ele>80.66666666666667</ele><time>2026-04-03T14:03:30.727Z</time></trkpt><trkpt lat="44.0653117" lon="12.2721117"><ele>80.0</ele><time>2026-04-03T14:03:31.727Z</time></trkpt><trkpt lat="44.0651083" lon="12.2721133"><ele>79.0</ele><time>2026-04-03T14:03:32.729Z</time></trkpt><trkpt lat="44.0649083" lon="12.2720783"><ele>78.0</ele><time>2026-04-03T14:03:33.728Z</time></trkpt><trkpt lat="44.06472" lon="12.2720167"><ele>77.0</ele><time>2026-04-03T14:03:34.726Z</time></trkpt><trkpt lat="44.0645533" lon="12.2719383"><ele>77.0</ele><time>2026-04-03T14:03:35.725Z</time></trkpt><trkpt lat="44.0644" lon="12.2718433"><ele>77.0</ele><time>2026-04-03T14:03:36.725Z</time></trkpt><trkpt lat="44.06428" lon="12.271715"><ele>77.0</ele><time>2026-04-03T14:03:37.726Z</time></trkpt><trkpt lat="44.0642017" lon="12.27155"><ele>77.0</ele><time>2026-04-03T14:03:38.725Z</time></trkpt><trkpt lat="44.06415" lon="12.2713367"><ele>77.0</ele><time>2026-04-03T14:03:39.726Z</time></trkpt><trkpt lat="44.0641133" lon="12.2710867"><ele>77.0</ele><time>2026-04-03T14:03:40.728Z</time></trkpt><trkpt lat="44.0640617" lon="12.27082"><ele>78.0</ele><time>2026-04-03T14:03:41.726Z</time></trkpt><trkpt lat="44.0640067" lon="12.2705333"><ele>79.0</ele><time>2026-04-03T14:03:42.726Z</time></trkpt><trkpt lat="44.0639583" lon="12.2702367"><ele>80.0</ele><time>2026-04-03T14:03:43.725Z</time></trkpt><trkpt lat="44.0639067" lon="12.26993"><ele>81.0</ele><time>2026-04-03T14:03:44.728Z</time></trkpt><trkpt lat="44.0638533" lon="12.2696183"><ele>82.0</ele><time>2026-04-03T14:03:45.725Z</time></trkpt><trkpt lat="44.0638" lon="12.26932"><ele>82.0</ele><time>2026-04-03T14:03:46.725Z</time></trkpt><trkpt lat="44.0637517" lon="12.26904"><ele>82.0</ele><time>2026-04-03T14:03:47.726Z</time></trkpt><trkpt lat="44.0637033" lon="12.2687733"><ele>82.0</ele><time>2026-04-03T14:03:48.725Z</time></trkpt><trkpt lat="44.0636517" lon="12.26852"><ele>82.0</ele><time>2026-04-03T14:03:49.726Z</time></trkpt><trkpt lat="44.06359" lon="12.268275"><ele>82.0</ele><time>2026-04-03T14:03:50.726Z</time></trkpt><trkpt lat="44.063525" lon="12.268045"><ele>82.0</ele><time>2026-04-03T14:03:51.726Z</time></trkpt><trkpt lat="44.0634583" lon="12.2678317"><ele>82.66666666666666</ele><time>2026-04-03T14:03:52.726Z</time></trkpt><trkpt lat="44.063395" lon="12.2676283"><ele>83.33333333333333</ele><time>2026-04-03T14:03:53.725Z</time></trkpt><trkpt lat="44.06333" lon="12.2674233"><ele>84.0</ele><time>2026-04-03T14:03:54.726Z</time></trkpt><trkpt lat="44.0632617" lon="12.26722"><ele>84.0</ele><time>2026-04-03T14:03:55.726Z</time></trkpt><trkpt lat="44.063195" lon="12.26701"><ele>84.0</ele><time>2026-04-03T14:03:56.726Z</time></trkpt><trkpt lat="44.0631267" lon="12.2667983"><ele>84.0</ele><time>2026-04-03T14:03:57.726Z</time></trkpt><trkpt lat="44.0630567" lon="12.2665833"><ele>87.66666666666667</ele><time>2026-04-03T14:03:58.726Z</time></trkpt><trkpt lat="44.06298" lon="12.266375"><ele>91.33333333333334</ele><time>2026-04-03T14:03:59.728Z</time></trkpt><trkpt lat="44.0628983" lon="12.2661783"><ele>95.0</ele><time>2026-04-03T14:04:00.729Z</time></trkpt><trkpt lat="44.0628017" lon="12.266"><ele>95.0</ele><time>2026-04-03T14:04:01.729Z</time></trkpt><trkpt lat="44.0626783" lon="12.2658533"><ele>95.0</ele><time>2026-04-03T14:04:02.729Z</time></trkpt><trkpt lat="44.062535" lon="12.2657333"><ele>95.0</ele><time>2026-04-03T14:04:03.728Z</time></trkpt><trkpt lat="44.0623733" lon="12.265655"><ele>96.66666666666667</ele><time>2026-04-03T14:04:04.726Z</time></trkpt><trkpt lat="44.0622017" lon="12.2656017"><ele>98.33333333333334</ele><time>2026-04-03T14:04:05.726Z</time></trkpt><trkpt lat="44.0620267" lon="12.26554"><ele>100.0</ele><time>2026-04-03T14:04:06.728Z</time></trkpt><trkpt lat="44.061865" lon="12.26548"><ele>100.0</ele><time>2026-04-03T14:04:07.729Z</time></trkpt><trkpt lat="44.06172" lon="12.2654033"><ele>100.0</ele><time>2026-04-03T14:04:08.729Z</time></trkpt><trkpt lat="44.0615983" lon="12.2653133"><ele>100.0</ele><time>2026-04-03T14:04:09.725Z</time></trkpt><trkpt lat="44.06149" lon="12.2652033"><ele>100.0</ele><time>2026-04-03T14:04:10.725Z</time></trkpt><trkpt lat="44.0613983" lon="12.26507"><ele>99.75</ele><time>2026-04-03T14:04:11.728Z</time></trkpt><trkpt lat="44.0613217" lon="12.264915"><ele>99.5</ele><time>2026-04-03T14:04:12.725Z</time></trkpt><trkpt lat="44.06124" lon="12.2647483"><ele>99.25</ele><time>2026-04-03T14:04:13.728Z</time></trkpt><trkpt lat="44.0611633" lon="12.2645733"><ele>99.0</ele><time>2026-04-03T14:04:14.729Z</time></trkpt><trkpt lat="44.0610817" lon="12.2643933"><ele>99.0</ele><time>2026-04-03T14:04:15.729Z</time></trkpt><trkpt lat="44.061" lon="12.2642267"><ele>99.0</ele><time>2026-04-03T14:04:16.725Z</time></trkpt><trkpt lat="44.06092" lon="12.2640733"><ele>99.0</ele><time>2026-04-03T14:04:17.726Z</time></trkpt><trkpt lat="44.060845" lon="12.2639383"><ele>99.0</ele><time>2026-04-03T14:04:18.726Z</time></trkpt><trkpt lat="44.06078" lon="12.2638167"><ele>99.0</ele><time>2026-04-03T14:04:19.726Z</time></trkpt><trkpt lat="44.0607267" lon="12.26371"><ele>99.0</ele><time>2026-04-03T14:04:20.725Z</time></trkpt><trkpt lat="44.0606767" lon="12.2636133"><ele>99.0</ele><time>2026-04-03T14:04:21.725Z</time></trkpt><trkpt lat="44.0606283" lon="12.2635067"><ele>99.0</ele><time>2026-04-03T14:04:22.726Z</time></trkpt><trkpt lat="44.0605817" lon="12.2633817"><ele>99.0</ele><time>2026-04-03T14:04:23.726Z</time></trkpt><trkpt lat="44.0605367" lon="12.2632417"><ele>100.25</ele><time>2026-04-03T14:04:24.726Z</time></trkpt><trkpt lat="44.0604917" lon="12.26309"><ele>101.5</ele><time>2026-04-03T14:04:25.727Z</time></trkpt><trkpt lat="44.0604417" lon="12.262935"><ele>102.75</ele><time>2026-04-03T14:04:26.727Z</time></trkpt><trkpt lat="44.0603883" lon="12.262785"><ele>104.0</ele><time>2026-04-03T14:04:27.727Z</time></trkpt><trkpt lat="44.0603433" lon="12.2626333"><ele>104.0</ele><time>2026-04-03T14:04:28.727Z</time></trkpt><trkpt lat="44.06032" lon="12.26247"><ele>104.0</ele><time>2026-04-03T14:04:29.73Z</time></trkpt><trkpt lat="44.0603317" lon="12.2623117"><ele>104.0</ele><time>2026-04-03T14:04:30.726Z</time></trkpt><trkpt lat="44.0603633" lon="12.262155"><ele>104.0</ele><time>2026-04-03T14:04:31.726Z</time></trkpt><trkpt lat="44.0604033" lon="12.2619933"><ele>107.25</ele><time>2026-04-03T14:04:32.726Z</time></trkpt><trkpt lat="44.0604467" lon="12.261815"><ele>110.5</ele><time>2026-04-03T14:04:33.727Z</time></trkpt><trkpt lat="44.06049" lon="12.2616183"><ele>113.75</ele><time>2026-04-03T14:04:34.727Z</time></trkpt><trkpt lat="44.06053" lon="12.261405"><ele>117.0</ele><time>2026-04-03T14:04:35.727Z</time></trkpt><trkpt lat="44.0605683" lon="12.2611933"><ele>118.0</ele><time>2026-04-03T14:04:36.727Z</time></trkpt><trkpt lat="44.0606067" lon="12.260985"><ele>119.0</ele><time>2026-04-03T14:04:37.73Z</time></trkpt><trkpt lat="44.06064" lon="12.26078"><ele>120.0</ele><time>2026-04-03T14:04:38.729Z</time></trkpt><trkpt lat="44.06067" lon="12.2605733"><ele>120.25</ele><time>2026-04-03T14:04:39.729Z</time></trkpt><trkpt lat="44.0606933" lon="12.2603717"><ele>120.5</ele><time>2026-04-03T14:04:40.73Z</time></trkpt><trkpt lat="44.0607133" lon="12.2601833"><ele>120.75</ele><time>2026-04-03T14:04:41.728Z</time></trkpt><trkpt lat="44.0607333" lon="12.26"><ele>121.0</ele><time>2026-04-03T14:04:42.729Z</time></trkpt><trkpt lat="44.0607567" lon="12.2598267"><ele>124.4</ele><time>2026-04-03T14:04:43.728Z</time></trkpt><trkpt lat="44.060785" lon="12.259665"><ele>127.8</ele><time>2026-04-03T14:04:44.728Z</time></trkpt><trkpt lat="44.06081" lon="12.2595217"><ele>131.20000000000002</ele><time>2026-04-03T14:04:45.733Z</time></trkpt><trkpt lat="44.0608383" lon="12.2594067"><ele>134.6</ele><time>2026-04-03T14:04:46.727Z</time></trkpt><trkpt lat="44.0608917" lon="12.2593267"><ele>138.0</ele><time>2026-04-03T14:04:47.726Z</time></trkpt><trkpt lat="44.0609667" lon="12.25928"><ele>138.0</ele><time>2026-04-03T14:04:48.727Z</time></trkpt><trkpt lat="44.0610567" lon="12.25925"><ele>138.0</ele><time>2026-04-03T14:04:49.726Z</time></trkpt><trkpt lat="44.06116" lon="12.259235"><ele>138.0</ele><time>2026-04-03T14:04:50.727Z</time></trkpt><trkpt lat="44.061275" lon="12.2592333"><ele>138.0</ele><time>2026-04-03T14:04:51.726Z</time></trkpt><trkpt lat="44.0613883" lon="12.25923"><ele>138.0</ele><time>2026-04-03T14:04:52.726Z</time></trkpt><trkpt lat="44.0615033" lon="12.2592217"><ele>141.0</ele><time>2026-04-03T14:04:53.727Z</time></trkpt><trkpt lat="44.0616217" lon="12.259215"><ele>144.0</ele><time>2026-04-03T14:04:54.727Z</time></trkpt><trkpt lat="44.061745" lon="12.25921"><ele>147.0</ele><time>2026-04-03T14:04:55.726Z</time></trkpt><trkpt lat="44.0618717" lon="12.2592083"><ele>150.0</ele><time>2026-04-03T14:04:56.727Z</time></trkpt><trkpt lat="44.062" lon="12.2592033"><ele>150.0</ele><time>2026-04-03T14:04:57.726Z</time></trkpt><trkpt lat="44.06211" lon="12.2591883"><ele>150.0</ele><time>2026-04-03T14:04:58.729Z</time></trkpt><trkpt lat="44.0622167" lon="12.259155"><ele>150.0</ele><time>2026-04-03T14:04:59.727Z</time></trkpt><trkpt lat="44.0623133" lon="12.25909"><ele>150.0</ele><time>2026-04-03T14:05:00.728Z</time></trkpt><trkpt lat="44.062395" lon="12.259"><ele>150.0</ele><time>2026-04-03T14:05:01.727Z</time></trkpt><trkpt lat="44.0624533" lon="12.2588817"><ele>155.0</ele><time>2026-04-03T14:05:02.729Z</time></trkpt><trkpt lat="44.06249" lon="12.2587283"><ele>160.0</ele><time>2026-04-03T14:05:03.725Z</time></trkpt><trkpt lat="44.0625117" lon="12.258555"><ele>165.0</ele><time>2026-04-03T14:05:04.729Z</time></trkpt><trkpt lat="44.062515" lon="12.2583783"><ele>170.0</ele><time>2026-04-03T14:05:05.725Z</time></trkpt><trkpt lat="44.0624983" lon="12.2581933"><ele>172.25</ele><time>2026-04-03T14:05:06.728Z</time></trkpt><trkpt lat="44.0624717" lon="12.258"><ele>174.5</ele><time>2026-04-03T14:05:07.727Z</time></trkpt><trkpt lat="44.0624533" lon="12.2578183"><ele>176.75</ele><time>2026-04-03T14:05:08.728Z</time></trkpt><trkpt lat="44.06245" lon="12.257645"><ele>179.0</ele><time>2026-04-03T14:05:09.726Z</time></trkpt><trkpt lat="44.062465" lon="12.257475"><ele>179.0</ele><time>2026-04-03T14:05:10.728Z</time></trkpt><trkpt lat="44.062495" lon="12.2573"><ele>179.0</ele><time>2026-04-03T14:05:11.73Z</time></trkpt><trkpt lat="44.0625317" lon="12.25713"><ele>179.0</ele><time>2026-04-03T14:05:12.729Z</time></trkpt><trkpt lat="44.06256" lon="12.256965"><ele>179.0</ele><time>2026-04-03T14:05:13.728Z</time></trkpt><trkpt lat="44.0625867" lon="12.2568133"><ele>178.83333333333331</ele><time>2026-04-03T14:05:14.73Z</time></trkpt><trkpt lat="44.062625" lon="12.2567067"><ele>178.66666666666666</ele><time>2026-04-03T14:05:15.725Z</time></trkpt><trkpt lat="44.06267" lon="12.256635"><ele>178.5</ele><time>2026-04-03T14:05:16.726Z</time></trkpt><trkpt lat="44.0627667" lon="12.256615"><ele>178.33333333333334</ele><time>2026-04-03T14:05:18.726Z</time></trkpt><trkpt lat="44.0628183" lon="12.25676"><ele>178.16666666666669</ele><time>2026-04-03T14:05:20.726Z</time></trkpt><trkpt lat="44.062845" lon="12.2568517"><ele>178.0</ele><time>2026-04-03T14:05:21.727Z</time></trkpt><trkpt lat="44.0629367" lon="12.2569633"><ele>178.0</ele><time>2026-04-03T14:05:23.726Z</time></trkpt><trkpt lat="44.0630033" lon="12.2569617"><ele>178.0</ele><time>2026-04-03T14:05:24.726Z</time></trkpt><trkpt lat="44.06308" lon="12.2569433"><ele>178.0</ele><time>2026-04-03T14:05:25.729Z</time></trkpt><trkpt lat="44.0631683" lon="12.256935"><ele>178.0</ele><time>2026-04-03T14:05:26.729Z</time></trkpt><trkpt lat="44.06325" lon="12.2569483"><ele>178.0</ele><time>2026-04-03T14:05:27.725Z</time></trkpt><trkpt lat="44.06333" lon="12.25699"><ele>178.0</ele><time>2026-04-03T14:05:28.726Z</time></trkpt><trkpt lat="44.0634133" lon="12.2570433"><ele>180.16666666666669</ele><time>2026-04-03T14:05:29.725Z</time></trkpt><trkpt lat="44.063485" lon="12.25709"><ele>182.33333333333334</ele><time>2026-04-03T14:05:30.726Z</time></trkpt><trkpt lat="44.0635467" lon="12.257125"><ele>184.5</ele><time>2026-04-03T14:05:31.727Z</time></trkpt><trkpt lat="44.0636417" lon="12.2571317"><ele>186.66666666666666</ele><time>2026-04-03T14:05:33.725Z</time></trkpt><trkpt lat="44.0636933" lon="12.2571967"><ele>188.83333333333331</ele><time>2026-04-03T14:08:31.73Z</time></trkpt><trkpt lat="44.0637517" lon="12.2572433"><ele>191.0</ele><time>2026-04-03T14:08:35.725Z</time></trkpt><trkpt lat="44.0638267" lon="12.2573033"><ele>192.8</ele><time>2026-04-03T14:08:37.725Z</time></trkpt><trkpt lat="44.063895" lon="12.2573467"><ele>194.60000000000002</ele><time>2026-04-03T14:08:38.726Z</time></trkpt><trkpt lat="44.0639717" lon="12.257405"><ele>196.4</ele><time>2026-04-03T14:08:39.727Z</time></trkpt><trkpt lat="44.0640533" lon="12.2574717"><ele>198.2</ele><time>2026-04-03T14:08:40.725Z</time></trkpt><trkpt lat="44.0641467" lon="12.2575417"><ele>200.0</ele><time>2026-04-03T14:08:41.725Z</time></trkpt><trkpt lat="44.0642483" lon="12.2576167"><ele>202.0</ele><time>2026-04-03T14:08:42.726Z</time></trkpt><trkpt lat="44.0643483" lon="12.2577017"><ele>204.0</ele><time>2026-04-03T14:08:43.726Z</time></trkpt><trkpt lat="44.0644483" lon="12.2577883"><ele>206.0</ele><time>2026-04-03T14:08:44.725Z</time></trkpt><trkpt lat="44.06455" lon="12.257875"><ele>208.0</ele><time>2026-04-03T14:08:45.725Z</time></trkpt><trkpt lat="44.0646517" lon="12.2579533"><ele>208.0</ele><time>2026-04-03T14:08:46.725Z</time></trkpt><trkpt lat="44.06475" lon="12.2580233"><ele>208.0</ele><time>2026-04-03T14:08:47.727Z</time></trkpt><trkpt lat="44.06484" lon="12.2580867"><ele>208.0</ele><time>2026-04-03T14:08:48.726Z</time></trkpt><trkpt lat="44.064915" lon="12.2581517"><ele>208.0</ele><time>2026-04-03T14:08:49.726Z</time></trkpt><trkpt lat="44.06498" lon="12.2582317"><ele>208.0</ele><time>2026-04-03T14:08:50.725Z</time></trkpt><trkpt lat="44.065035" lon="12.2583333"><ele>216.66666666666666</ele><time>2026-04-03T14:08:51.726Z</time></trkpt><trkpt lat="44.0652233" lon="12.2587067"><ele>225.33333333333331</ele><time>2026-04-03T14:08:53.442Z</time></trkpt><trkpt lat="44.0652433" lon="12.2588217"><ele>234.0</ele><time>2026-04-03T14:08:55.725Z</time></trkpt><trkpt lat="44.065315" lon="12.2588717"><ele>234.0</ele><time>2026-04-03T14:08:57.726Z</time></trkpt><trkpt lat="44.0654133" lon="12.258805"><ele>233.99999999999997</ele><time>2026-04-03T14:08:59.725Z</time></trkpt><trkpt lat="44.065485" lon="12.2587517"><ele>233.99999999999997</ele><time>2026-04-03T14:09:00.725Z</time></trkpt><trkpt lat="44.0655733" lon="12.2587233"><ele>234.0</ele><time>2026-04-03T14:09:01.725Z</time></trkpt><trkpt lat="44.06566" lon="12.2586967"><ele>234.0</ele><time>2026-04-03T14:09:02.726Z</time></trkpt><trkpt lat="44.0657467" lon="12.2586783"><ele>234.83333333333334</ele><time>2026-04-03T14:09:03.726Z</time></trkpt><trkpt lat="44.06584" lon="12.2586567"><ele>235.66666666666669</ele><time>2026-04-03T14:09:04.728Z</time></trkpt><trkpt lat="44.065925" lon="12.258665"><ele>236.5</ele><time>2026-04-03T14:09:05.727Z</time></trkpt><trkpt lat="44.0660083" lon="12.25868"><ele>237.33333333333334</ele><time>2026-04-03T14:09:06.726Z</time></trkpt><trkpt lat="44.0660933" lon="12.2586983"><ele>238.16666666666669</ele><time>2026-04-03T14:09:07.725Z</time></trkpt><trkpt lat="44.066165" lon="12.2587183"><ele>239.0</ele><time>2026-04-03T14:09:08.726Z</time></trkpt><trkpt lat="44.0662383" lon="12.2587433"><ele>239.0</ele><time>2026-04-03T14:09:09.726Z</time></trkpt><trkpt lat="44.0663017" lon="12.2587683"><ele>239.0</ele><time>2026-04-03T14:09:10.727Z</time></trkpt><trkpt lat="44.0663817" lon="12.258805"><ele>239.0</ele><time>2026-04-03T14:09:12.725Z</time></trkpt><trkpt lat="44.0661833" lon="12.2587833"><ele>239.0</ele><time>2026-04-03T14:09:35.422Z</time></trkpt><trkpt lat="44.0662983" lon="12.2587483"><ele>239.0</ele><time>2026-04-03T14:09:40.727Z</time></trkpt><trkpt lat="44.0664083" lon="12.2587567"><ele>238.99999999999997</ele><time>2026-04-03T14:10:05.725Z</time></trkpt><trkpt lat="44.0664783" lon="12.2587267"><ele>238.99999999999997</ele><time>2026-04-03T14:10:07.727Z</time></trkpt><trkpt lat="44.0665967" lon="12.2586733"><ele>239.0</ele><time>2026-04-03T14:10:09.725Z</time></trkpt><trkpt lat="44.066685" lon="12.2586283"><ele>239.0</ele><time>2026-04-03T14:10:10.727Z</time></trkpt><trkpt lat="44.0667867" lon="12.2585633"><ele>241.75</ele><time>2026-04-03T14:10:11.726Z</time></trkpt><trkpt lat="44.0669117" lon="12.2584733"><ele>244.5</ele><time>2026-04-03T14:10:12.725Z</time></trkpt><trkpt lat="44.0670333" lon="12.258405"><ele>247.25</ele><time>2026-04-03T14:10:13.725Z</time></trkpt><trkpt lat="44.0671567" lon="12.2583317"><ele>250.0</ele><time>2026-04-03T14:10:14.725Z</time></trkpt><trkpt lat="44.06728" lon="12.2582617"><ele>250.0</ele><time>2026-04-03T14:10:15.725Z</time></trkpt><trkpt lat="44.0674083" lon="12.2582017"><ele>250.0</ele><time>2026-04-03T14:10:16.725Z</time></trkpt><trkpt lat="44.0675383" lon="12.2581267"><ele>250.0</ele><time>2026-04-03T14:10:17.726Z</time></trkpt><trkpt lat="44.0676717" lon="12.2580517"><ele>250.0</ele><time>2026-04-03T14:10:18.728Z</time></trkpt><trkpt lat="44.0678117" lon="12.2579733"><ele>253.0</ele><time>2026-04-03T14:10:19.725Z</time></trkpt><trkpt lat="44.0679583" lon="12.257885"><ele>256.0</ele><time>2026-04-03T14:10:20.726Z</time></trkpt><trkpt lat="44.0681033" lon="12.2577933"><ele>259.0</ele><time>2026-04-03T14:10:21.725Z</time></trkpt><trkpt lat="44.068245" lon="12.257695"><ele>260.66666666666663</ele><time>2026-04-03T14:10:22.725Z</time></trkpt><trkpt lat="44.068385" lon="12.2575733"><ele>262.3333333333333</ele><time>2026-04-03T14:10:23.727Z</time></trkpt><trkpt lat="44.068525" lon="12.2574367"><ele>264.0</ele><time>2026-04-03T14:10:24.725Z</time></trkpt><trkpt lat="44.0686683" lon="12.2573033"><ele>263.3333333333333</ele><time>2026-04-03T14:10:25.725Z</time></trkpt><trkpt lat="44.06881" lon="12.2571617"><ele>262.66666666666663</ele><time>2026-04-03T14:10:26.726Z</time></trkpt><trkpt lat="44.0689517" lon="12.2570317"><ele>262.0</ele><time>2026-04-03T14:10:27.727Z</time></trkpt><trkpt lat="44.06909" lon="12.2568983"><ele>260.0</ele><time>2026-04-03T14:10:28.726Z</time></trkpt><trkpt lat="44.0692267" lon="12.2567517"><ele>258.0</ele><time>2026-04-03T14:10:29.726Z</time></trkpt><trkpt lat="44.06937" lon="12.2566"><ele>256.0</ele><time>2026-04-03T14:10:30.725Z</time></trkpt><trkpt lat="44.0695033" lon="12.2564417"><ele>256.0</ele><time>2026-04-03T14:10:31.726Z</time></trkpt><trkpt lat="44.0696383" lon="12.256285"><ele>256.0</ele><time>2026-04-03T14:10:32.725Z</time></trkpt><trkpt lat="44.06977" lon="12.2561283"><ele>256.0</ele><time>2026-04-03T14:10:33.726Z</time></trkpt><trkpt lat="44.069905" lon="12.2559733"><ele>256.3333333333333</ele><time>2026-04-03T14:10:34.729Z</time></trkpt><trkpt lat="44.0700483" lon="12.25583"><ele>256.6666666666667</ele><time>2026-04-03T14:10:35.725Z</time></trkpt><trkpt lat="44.0701967" lon="12.255705"><ele>257.0</ele><time>2026-04-03T14:10:36.726Z</time></trkpt><trkpt lat="44.0703483" lon="12.2556117"><ele>257.0</ele><time>2026-04-03T14:10:37.729Z</time></trkpt><trkpt lat="44.0704917" lon="12.2555283"><ele>257.0</ele><time>2026-04-03T14:10:38.725Z</time></trkpt><trkpt lat="44.0706333" lon="12.2554417"><ele>257.0</ele><time>2026-04-03T14:10:39.726Z</time></trkpt><trkpt lat="44.0707617" lon="12.2553333"><ele>261.33333333333337</ele><time>2026-04-03T14:10:40.725Z</time></trkpt><trkpt lat="44.070875" lon="12.2551833"><ele>265.6666666666667</ele><time>2026-04-03T14:10:41.726Z</time></trkpt><trkpt lat="44.0709783" lon="12.254995"><ele>270.0</ele><time>2026-04-03T14:10:42.726Z</time></trkpt><trkpt lat="44.0710667" lon="12.2547917"><ele>268.5</ele><time>2026-04-03T14:10:43.726Z</time></trkpt><trkpt lat="44.07114" lon="12.254595"><ele>267.0</ele><time>2026-04-03T14:10:44.728Z</time></trkpt><trkpt lat="44.071205" lon="12.2544117"><ele>265.5</ele><time>2026-04-03T14:10:45.729Z</time></trkpt><trkpt lat="44.071255" lon="12.2542367"><ele>264.0</ele><time>2026-04-03T14:10:46.725Z</time></trkpt><trkpt lat="44.07127" lon="12.2540567"><ele>262.6666666666667</ele><time>2026-04-03T14:10:47.728Z</time></trkpt><trkpt lat="44.07125" lon="12.2538617"><ele>261.33333333333337</ele><time>2026-04-03T14:10:48.73Z</time></trkpt><trkpt lat="44.0711967" lon="12.253655"><ele>260.0</ele><time>2026-04-03T14:10:49.729Z</time></trkpt><trkpt lat="44.0711333" lon="12.2534383"><ele>260.0</ele><time>2026-04-03T14:10:50.726Z</time></trkpt><trkpt lat="44.0710817" lon="12.2532217"><ele>260.0</ele><time>2026-04-03T14:10:51.725Z</time></trkpt><trkpt lat="44.0710583" lon="12.2530017"><ele>260.0</ele><time>2026-04-03T14:10:52.725Z</time></trkpt><trkpt lat="44.0710533" lon="12.2527867"><ele>259.5</ele><time>2026-04-03T14:10:53.726Z</time></trkpt><trkpt lat="44.0710617" lon="12.252585"><ele>259.0</ele><time>2026-04-03T14:10:54.726Z</time></trkpt><trkpt lat="44.0710833" lon="12.2523933"><ele>258.5</ele><time>2026-04-03T14:10:55.727Z</time></trkpt><trkpt lat="44.07111" lon="12.252205"><ele>258.0</ele><time>2026-04-03T14:10:56.726Z</time></trkpt><trkpt lat="44.0711383" lon="12.2520217"><ele>258.8</ele><time>2026-04-03T14:10:57.726Z</time></trkpt><trkpt lat="44.071175" lon="12.251855"><ele>259.6</ele><time>2026-04-03T14:10:58.726Z</time></trkpt><trkpt lat="44.0712267" lon="12.251725"><ele>260.4</ele><time>2026-04-03T14:10:59.725Z</time></trkpt><trkpt lat="44.0712983" lon="12.251625"><ele>261.2</ele><time>2026-04-03T14:11:00.725Z</time></trkpt><trkpt lat="44.0713883" lon="12.2515433"><ele>262.0</ele><time>2026-04-03T14:11:01.725Z</time></trkpt><trkpt lat="44.0715" lon="12.2514883"><ele>262.5</ele><time>2026-04-03T14:11:02.726Z</time></trkpt><trkpt lat="44.0716333" lon="12.2514617"><ele>263.0</ele><time>2026-04-03T14:11:03.726Z</time></trkpt><trkpt lat="44.07178" lon="12.2514517"><ele>263.5</ele><time>2026-04-03T14:11:04.726Z</time></trkpt><trkpt lat="44.071935" lon="12.2514417"><ele>264.0</ele><time>2026-04-03T14:11:05.725Z</time></trkpt><trkpt lat="44.07208" lon="12.2514317"><ele>265.0</ele><time>2026-04-03T14:11:06.725Z</time></trkpt><trkpt lat="44.07221" lon="12.251415"><ele>266.0</ele><time>2026-04-03T14:11:07.726Z</time></trkpt><trkpt lat="44.0723267" lon="12.2514183"><ele>267.0</ele><time>2026-04-03T14:11:08.726Z</time></trkpt><trkpt lat="44.0724217" lon="12.2514467"><ele>268.0</ele><time>2026-04-03T14:11:09.725Z</time></trkpt><trkpt lat="44.0724983" lon="12.2515117"><ele>269.0</ele><time>2026-04-03T14:11:10.73Z</time></trkpt><trkpt lat="44.072565" lon="12.2515933"><ele>269.0</ele><time>2026-04-03T14:11:11.73Z</time></trkpt><trkpt lat="44.07261" lon="12.2517183"><ele>269.0</ele><time>2026-04-03T14:11:12.73Z</time></trkpt><trkpt lat="44.0726483" lon="12.2518617"><ele>269.0</ele><time>2026-04-03T14:11:13.728Z</time></trkpt><trkpt lat="44.072695" lon="12.2520067"><ele>269.0</ele><time>2026-04-03T14:11:14.725Z</time></trkpt><trkpt lat="44.0727483" lon="12.252135"><ele>269.0</ele><time>2026-04-03T14:11:15.725Z</time></trkpt><trkpt lat="44.0728117" lon="12.2522217"><ele>269.0</ele><time>2026-04-03T14:11:16.725Z</time></trkpt><trkpt lat="44.0728833" lon="12.2522833"><ele>269.0</ele><time>2026-04-03T14:11:17.725Z</time></trkpt><trkpt lat="44.07296" lon="12.2523183"><ele>269.0</ele><time>2026-04-03T14:11:18.727Z</time></trkpt><trkpt lat="44.073055" lon="12.2523083"><ele>269.0</ele><time>2026-04-03T14:11:19.726Z</time></trkpt><trkpt lat="44.0731683" lon="12.25225"><ele>269.0</ele><time>2026-04-03T14:11:20.725Z</time></trkpt><trkpt lat="44.0733483" lon="12.2521983"><ele>273.0</ele><time>2026-04-03T14:11:21.725Z</time></trkpt><trkpt lat="44.073515" lon="12.252165"><ele>277.0</ele><time>2026-04-03T14:11:22.725Z</time></trkpt><trkpt lat="44.07369" lon="12.2521283"><ele>281.0</ele><time>2026-04-03T14:11:23.726Z</time></trkpt><trkpt lat="44.073875" lon="12.2520967"><ele>281.0</ele><time>2026-04-03T14:11:24.726Z</time></trkpt><trkpt lat="44.0740583" lon="12.2520717"><ele>281.0</ele><time>2026-04-03T14:11:25.726Z</time></trkpt><trkpt lat="44.074235" lon="12.2520467"><ele>281.0</ele><time>2026-04-03T14:11:26.725Z</time></trkpt><trkpt lat="44.0743967" lon="12.252035"><ele>278.5</ele><time>2026-04-03T14:11:27.724Z</time></trkpt><trkpt lat="44.0745517" lon="12.2520217"><ele>276.0</ele><time>2026-04-03T14:11:28.728Z</time></trkpt><trkpt lat="44.0746967" lon="12.2520133"><ele>273.5</ele><time>2026-04-03T14:11:29.729Z</time></trkpt><trkpt lat="44.0748333" lon="12.252005"><ele>271.0</ele><time>2026-04-03T14:11:30.725Z</time></trkpt><trkpt lat="44.074965" lon="12.2520167"><ele>270.75</ele><time>2026-04-03T14:11:31.724Z</time></trkpt><trkpt lat="44.0751" lon="12.2520383"><ele>270.5</ele><time>2026-04-03T14:11:32.724Z</time></trkpt><trkpt lat="44.075235" lon="12.2520617"><ele>270.25</ele><time>2026-04-03T14:11:33.729Z</time></trkpt><trkpt lat="44.075365" lon="12.2520867"><ele>270.0</ele><time>2026-04-03T14:11:34.729Z</time></trkpt><trkpt lat="44.0755017" lon="12.252085"><ele>270.0</ele><time>2026-04-03T14:11:35.729Z</time></trkpt><trkpt lat="44.0756433" lon="12.25207"><ele>270.0</ele><time>2026-04-03T14:11:36.724Z</time></trkpt><trkpt lat="44.07579" lon="12.25206"><ele>270.0</ele><time>2026-04-03T14:11:37.727Z</time></trkpt><trkpt lat="44.07593" lon="12.2520683"><ele>270.0</ele><time>2026-04-03T14:11:38.729Z</time></trkpt><trkpt lat="44.0760667" lon="12.2521033"><ele>268.5</ele><time>2026-04-03T14:11:39.728Z</time></trkpt><trkpt lat="44.0761967" lon="12.2521733"><ele>267.0</ele><time>2026-04-03T14:11:40.728Z</time></trkpt><trkpt lat="44.0763267" lon="12.25226"><ele>265.5</ele><time>2026-04-03T14:11:41.727Z</time></trkpt><trkpt lat="44.0764667" lon="12.2523467"><ele>264.0</ele><time>2026-04-03T14:11:42.729Z</time></trkpt><trkpt lat="44.07662" lon="12.2524333"><ele>259.6666666666667</ele><time>2026-04-03T14:11:43.727Z</time></trkpt><trkpt lat="44.076775" lon="12.2525267"><ele>255.33333333333334</ele><time>2026-04-03T14:11:44.728Z</time></trkpt><trkpt lat="44.0769317" lon="12.2526183"><ele>251.0</ele><time>2026-04-03T14:11:45.728Z</time></trkpt><trkpt lat="44.07709" lon="12.2527117"><ele>251.0</ele><time>2026-04-03T14:11:46.727Z</time></trkpt><trkpt lat="44.077255" lon="12.2528033"><ele>251.0</ele><time>2026-04-03T14:11:47.729Z</time></trkpt><trkpt lat="44.0774183" lon="12.25288"><ele>251.0</ele><time>2026-04-03T14:11:48.725Z</time></trkpt><trkpt lat="44.0775683" lon="12.2529567"><ele>251.66666666666669</ele><time>2026-04-03T14:11:49.728Z</time></trkpt><trkpt lat="44.077715" lon="12.2530217"><ele>252.33333333333331</ele><time>2026-04-03T14:11:50.728Z</time></trkpt><trkpt lat="44.07786" lon="12.2530667"><ele>253.0</ele><time>2026-04-03T14:11:51.731Z</time></trkpt><trkpt lat="44.0780067" lon="12.2530867"><ele>253.0</ele><time>2026-04-03T14:11:52.728Z</time></trkpt><trkpt lat="44.0781517" lon="12.2530933"><ele>253.0</ele><time>2026-04-03T14:11:53.728Z</time></trkpt><trkpt lat="44.0782867" lon="12.2531217"><ele>253.0</ele><time>2026-04-03T14:11:54.728Z</time></trkpt><trkpt lat="44.0784117" lon="12.2531717"><ele>253.0</ele><time>2026-04-03T14:11:55.725Z</time></trkpt><trkpt lat="44.078535" lon="12.2532417"><ele>256.0</ele><time>2026-04-03T14:11:56.729Z</time></trkpt><trkpt lat="44.07866" lon="12.2533283"><ele>259.0</ele><time>2026-04-03T14:11:57.73Z</time></trkpt><trkpt lat="44.0787867" lon="12.25343"><ele>262.0</ele><time>2026-04-03T14:11:58.727Z</time></trkpt><trkpt lat="44.0789133" lon="12.253535"><ele>265.0</ele><time>2026-04-03T14:11:59.725Z</time></trkpt><trkpt lat="44.07905" lon="12.2536317"><ele>264.0</ele><time>2026-04-03T14:12:00.728Z</time></trkpt><trkpt lat="44.0791967" lon="12.25371"><ele>263.0</ele><time>2026-04-03T14:12:01.728Z</time></trkpt><trkpt lat="44.0793433" lon="12.253775"><ele>262.0</ele><time>2026-04-03T14:12:02.729Z</time></trkpt><trkpt lat="44.0794817" lon="12.253825"><ele>262.0</ele><time>2026-04-03T14:12:03.729Z</time></trkpt><trkpt lat="44.0796267" lon="12.2538567"><ele>262.0</ele><time>2026-04-03T14:12:04.726Z</time></trkpt><trkpt lat="44.0797733" lon="12.2538733"><ele>262.0</ele><time>2026-04-03T14:12:05.727Z</time></trkpt><trkpt lat="44.0799217" lon="12.2538917"><ele>262.0</ele><time>2026-04-03T14:12:06.724Z</time></trkpt><trkpt lat="44.08006" lon="12.2539433"><ele>263.5</ele><time>2026-04-03T14:12:07.73Z</time></trkpt><trkpt lat="44.0801867" lon="12.2540383"><ele>265.0</ele><time>2026-04-03T14:12:08.725Z</time></trkpt><trkpt lat="44.0803" lon="12.2541733"><ele>266.5</ele><time>2026-04-03T14:12:09.728Z</time></trkpt><trkpt lat="44.0803917" lon="12.2543317"><ele>268.0</ele><time>2026-04-03T14:12:10.729Z</time></trkpt><trkpt lat="44.0804533" lon="12.254505"><ele>268.0</ele><time>2026-04-03T14:12:11.724Z</time></trkpt><trkpt lat="44.0804917" lon="12.2547033"><ele>268.0</ele><time>2026-04-03T14:12:12.726Z</time></trkpt><trkpt lat="44.0805083" lon="12.25491"><ele>268.0</ele><time>2026-04-03T14:12:13.725Z</time></trkpt><trkpt lat="44.08054" lon="12.255125"><ele>266.0</ele><time>2026-04-03T14:12:14.724Z</time></trkpt><trkpt lat="44.08059" lon="12.2553367"><ele>264.0</ele><time>2026-04-03T14:12:15.729Z</time></trkpt><trkpt lat="44.08067" lon="12.255515"><ele>262.0</ele><time>2026-04-03T14:12:16.729Z</time></trkpt><trkpt lat="44.0807717" lon="12.25564"><ele>260.0</ele><time>2026-04-03T14:12:17.73Z</time></trkpt><trkpt lat="44.0808917" lon="12.2557083"><ele>260.0</ele><time>2026-04-03T14:12:18.729Z</time></trkpt><trkpt lat="44.0810333" lon="12.2557367"><ele>260.0</ele><time>2026-04-03T14:12:19.728Z</time></trkpt><trkpt lat="44.0811917" lon="12.25574"><ele>260.0</ele><time>2026-04-03T14:12:20.728Z</time></trkpt><trkpt lat="44.0813633" lon="12.255715"><ele>260.0</ele><time>2026-04-03T14:12:21.728Z</time></trkpt><trkpt lat="44.0815433" lon="12.2556667"><ele>260.0</ele><time>2026-04-03T14:12:22.729Z</time></trkpt><trkpt lat="44.081725" lon="12.2556083"><ele>260.0</ele><time>2026-04-03T14:12:23.729Z</time></trkpt><trkpt lat="44.0819083" lon="12.2555583"><ele>262.6666666666667</ele><time>2026-04-03T14:12:24.729Z</time></trkpt><trkpt lat="44.08209" lon="12.255535"><ele>265.3333333333333</ele><time>2026-04-03T14:12:25.727Z</time></trkpt><trkpt lat="44.0822683" lon="12.2555583"><ele>268.0</ele><time>2026-04-03T14:12:26.729Z</time></trkpt><trkpt lat="44.08245" lon="12.2556"><ele>268.0</ele><time>2026-04-03T14:12:27.729Z</time></trkpt><trkpt lat="44.082615" lon="12.2556517"><ele>268.0</ele><time>2026-04-03T14:12:28.729Z</time></trkpt><trkpt lat="44.0827683" lon="12.255705"><ele>268.0</ele><time>2026-04-03T14:12:29.724Z</time></trkpt><trkpt lat="44.0829117" lon="12.2557383"><ele>268.0</ele><time>2026-04-03T14:12:30.729Z</time></trkpt><trkpt lat="44.0830533" lon="12.2557233"><ele>268.0</ele><time>2026-04-03T14:12:31.729Z</time></trkpt><trkpt lat="44.0831933" lon="12.255665"><ele>268.0</ele><time>2026-04-03T14:12:32.724Z</time></trkpt><trkpt lat="44.0833383" lon="12.2556017"><ele>268.0</ele><time>2026-04-03T14:12:33.725Z</time></trkpt><trkpt lat="44.0834867" lon="12.2555333"><ele>266.5</ele><time>2026-04-03T14:12:34.728Z</time></trkpt><trkpt lat="44.083635" lon="12.2554517"><ele>265.0</ele><time>2026-04-03T14:12:35.724Z</time></trkpt><trkpt lat="44.0837667" lon="12.2553767"><ele>263.5</ele><time>2026-04-03T14:12:36.727Z</time></trkpt><trkpt lat="44.083895" lon="12.255315"><ele>262.0</ele><time>2026-04-03T14:12:37.727Z</time></trkpt><trkpt lat="44.084015" lon="12.255265"><ele>262.5</ele><time>2026-04-03T14:12:38.728Z</time></trkpt><trkpt lat="44.08414" lon="12.2552267"><ele>263.0</ele><time>2026-04-03T14:12:39.728Z</time></trkpt><trkpt lat="44.0842633" lon="12.255205"><ele>263.5</ele><time>2026-04-03T14:12:40.725Z</time></trkpt><trkpt lat="44.08438" lon="12.2552067"><ele>264.0</ele><time>2026-04-03T14:12:41.725Z</time></trkpt><trkpt lat="44.0844967" lon="12.2552467"><ele>264.0</ele><time>2026-04-03T14:12:42.726Z</time></trkpt><trkpt lat="44.0846167" lon="12.25532"><ele>264.0</ele><time>2026-04-03T14:12:43.725Z</time></trkpt><trkpt lat="44.084735" lon="12.255415"><ele>264.0</ele><time>2026-04-03T14:12:44.728Z</time></trkpt><trkpt lat="44.0848533" lon="12.2555117"><ele>264.0</ele><time>2026-04-03T14:12:45.725Z</time></trkpt><trkpt lat="44.0849733" lon="12.2556017"><ele>265.0</ele><time>2026-04-03T14:12:46.727Z</time></trkpt><trkpt lat="44.0851083" lon="12.2556783"><ele>266.0</ele><time>2026-04-03T14:12:47.724Z</time></trkpt><trkpt lat="44.0852617" lon="12.255745"><ele>267.0</ele><time>2026-04-03T14:12:48.727Z</time></trkpt><trkpt lat="44.08542" lon="12.2558183"><ele>267.0</ele><time>2026-04-03T14:12:49.726Z</time></trkpt><trkpt lat="44.0855717" lon="12.2558917"><ele>267.0</ele><time>2026-04-03T14:12:50.726Z</time></trkpt><trkpt lat="44.085715" lon="12.255955"><ele>267.0</ele><time>2026-04-03T14:12:51.727Z</time></trkpt><trkpt lat="44.085845" lon="12.256"><ele>267.0</ele><time>2026-04-03T14:12:52.729Z</time></trkpt><trkpt lat="44.08596" lon="12.256025"><ele>264.75</ele><time>2026-04-03T14:12:53.726Z</time></trkpt><trkpt lat="44.086075" lon="12.25602"><ele>262.5</ele><time>2026-04-03T14:12:54.726Z</time></trkpt><trkpt lat="44.0861917" lon="12.2559783"><ele>260.25</ele><time>2026-04-03T14:12:55.725Z</time></trkpt><trkpt lat="44.0863017" lon="12.25589"><ele>258.0</ele><time>2026-04-03T14:12:56.725Z</time></trkpt><trkpt lat="44.0864067" lon="12.2557467"><ele>254.66666666666669</ele><time>2026-04-03T14:12:57.729Z</time></trkpt><trkpt lat="44.086495" lon="12.25556"><ele>251.33333333333334</ele><time>2026-04-03T14:12:58.725Z</time></trkpt><trkpt lat="44.08657" lon="12.2553367"><ele>248.0</ele><time>2026-04-03T14:12:59.725Z</time></trkpt><trkpt lat="44.0866517" lon="12.2550967"><ele>248.0</ele><time>2026-04-03T14:13:00.725Z</time></trkpt><trkpt lat="44.086735" lon="12.25486"><ele>248.0</ele><time>2026-04-03T14:13:01.727Z</time></trkpt><trkpt lat="44.08681" lon="12.2546317"><ele>248.0</ele><time>2026-04-03T14:13:02.724Z</time></trkpt><trkpt lat="44.0868817" lon="12.25443"><ele>245.5</ele><time>2026-04-03T14:13:03.725Z</time></trkpt><trkpt lat="44.0869633" lon="12.25426"><ele>243.0</ele><time>2026-04-03T14:13:04.726Z</time></trkpt><trkpt lat="44.087045" lon="12.25412"><ele>240.5</ele><time>2026-04-03T14:13:05.726Z</time></trkpt><trkpt lat="44.0871183" lon="12.25399"><ele>238.0</ele><time>2026-04-03T14:13:06.726Z</time></trkpt><trkpt lat="44.08717" lon="12.2538417"><ele>234.66666666666666</ele><time>2026-04-03T14:13:07.727Z</time></trkpt><trkpt lat="44.087195" lon="12.2536667"><ele>231.33333333333331</ele><time>2026-04-03T14:13:08.725Z</time></trkpt><trkpt lat="44.087195" lon="12.25345"><ele>228.0</ele><time>2026-04-03T14:13:09.725Z</time></trkpt><trkpt lat="44.087175" lon="12.253215"><ele>229.0</ele><time>2026-04-03T14:13:10.726Z</time></trkpt><trkpt lat="44.0871583" lon="12.252985"><ele>230.0</ele><time>2026-04-03T14:13:11.727Z</time></trkpt><trkpt lat="44.0871217" lon="12.2527567"><ele>231.0</ele><time>2026-04-03T14:13:12.726Z</time></trkpt><trkpt lat="44.0870533" lon="12.252535"><ele>231.0</ele><time>2026-04-03T14:13:13.726Z</time></trkpt><trkpt lat="44.0869733" lon="12.2523067"><ele>231.0</ele><time>2026-04-03T14:13:14.729Z</time></trkpt><trkpt lat="44.0869" lon="12.2520767"><ele>231.0</ele><time>2026-04-03T14:13:15.729Z</time></trkpt><trkpt lat="44.086845" lon="12.25186"><ele>232.5</ele><time>2026-04-03T14:13:16.726Z</time></trkpt><trkpt lat="44.086815" lon="12.2516583"><ele>234.0</ele><time>2026-04-03T14:13:17.725Z</time></trkpt><trkpt lat="44.0868183" lon="12.251475"><ele>235.5</ele><time>2026-04-03T14:13:18.726Z</time></trkpt><trkpt lat="44.0868467" lon="12.2512867"><ele>237.0</ele><time>2026-04-03T14:13:19.726Z</time></trkpt><trkpt lat="44.0868917" lon="12.2511083"><ele>237.5</ele><time>2026-04-03T14:13:20.725Z</time></trkpt><trkpt lat="44.0869583" lon="12.2509617"><ele>238.0</ele><time>2026-04-03T14:13:21.725Z</time></trkpt><trkpt lat="44.0870417" lon="12.2508667"><ele>238.5</ele><time>2026-04-03T14:13:22.726Z</time></trkpt><trkpt lat="44.0871467" lon="12.2508133"><ele>239.0</ele><time>2026-04-03T14:13:23.728Z</time></trkpt><trkpt lat="44.08728" lon="12.25078"><ele>239.0</ele><time>2026-04-03T14:13:24.727Z</time></trkpt><trkpt lat="44.087425" lon="12.2507433"><ele>239.0</ele><time>2026-04-03T14:13:25.725Z</time></trkpt><trkpt lat="44.08758" lon="12.250705"><ele>239.0</ele><time>2026-04-03T14:13:26.724Z</time></trkpt><trkpt lat="44.0877417" lon="12.2506683"><ele>238.0</ele><time>2026-04-03T14:13:27.726Z</time></trkpt><trkpt lat="44.0879067" lon="12.2506267"><ele>237.0</ele><time>2026-04-03T14:13:28.725Z</time></trkpt><trkpt lat="44.088075" lon="12.250585"><ele>236.0</ele><time>2026-04-03T14:13:29.725Z</time></trkpt><trkpt lat="44.0882417" lon="12.2505417"><ele>239.0</ele><time>2026-04-03T14:13:30.728Z</time></trkpt><trkpt lat="44.088405" lon="12.2504933"><ele>242.0</ele><time>2026-04-03T14:13:31.728Z</time></trkpt><trkpt lat="44.08856" lon="12.2504383"><ele>245.0</ele><time>2026-04-03T14:13:32.724Z</time></trkpt><trkpt lat="44.0887133" lon="12.2503783"><ele>245.0</ele><time>2026-04-03T14:13:33.728Z</time></trkpt><trkpt lat="44.088875" lon="12.25033"><ele>245.0</ele><time>2026-04-03T14:13:34.725Z</time></trkpt><trkpt lat="44.0890333" lon="12.2502917"><ele>245.0</ele><time>2026-04-03T14:13:35.725Z</time></trkpt><trkpt lat="44.08919" lon="12.250245"><ele>246.66666666666669</ele><time>2026-04-03T14:13:36.725Z</time></trkpt><trkpt lat="44.0893483" lon="12.250195"><ele>248.33333333333331</ele><time>2026-04-03T14:13:37.725Z</time></trkpt><trkpt lat="44.0895033" lon="12.2501433"><ele>250.0</ele><time>2026-04-03T14:13:38.726Z</time></trkpt><trkpt lat="44.0896583" lon="12.2500833"><ele>250.0</ele><time>2026-04-03T14:13:39.725Z</time></trkpt><trkpt lat="44.0898117" lon="12.2500117"><ele>250.0</ele><time>2026-04-03T14:13:40.729Z</time></trkpt><trkpt lat="44.0899683" lon="12.2499283"><ele>250.0</ele><time>2026-04-03T14:13:41.729Z</time></trkpt><trkpt lat="44.09013" lon="12.2498317"><ele>249.0</ele><time>2026-04-03T14:13:42.729Z</time></trkpt><trkpt lat="44.0902933" lon="12.249745"><ele>248.0</ele><time>2026-04-03T14:13:43.729Z</time></trkpt><trkpt lat="44.0904533" lon="12.24966"><ele>247.0</ele><time>2026-04-03T14:13:44.73Z</time></trkpt><trkpt lat="44.0906167" lon="12.249585"><ele>239.66666666666666</ele><time>2026-04-03T14:13:45.729Z</time></trkpt><trkpt lat="44.09078" lon="12.2495183"><ele>232.33333333333331</ele><time>2026-04-03T14:13:46.728Z</time></trkpt><trkpt lat="44.0909367" lon="12.249475"><ele>225.0</ele><time>2026-04-03T14:13:47.729Z</time></trkpt><trkpt lat="44.0911" lon="12.24943"><ele>225.0</ele><time>2026-04-03T14:13:48.729Z</time></trkpt><trkpt lat="44.0912633" lon="12.249385"><ele>225.0</ele><time>2026-04-03T14:13:49.729Z</time></trkpt><trkpt lat="44.0914267" lon="12.2493433"><ele>225.0</ele><time>2026-04-03T14:13:50.728Z</time></trkpt><trkpt lat="44.09159" lon="12.249315"><ele>223.66666666666669</ele><time>2026-04-03T14:13:51.728Z</time></trkpt><trkpt lat="44.091755" lon="12.2493033"><ele>222.33333333333334</ele><time>2026-04-03T14:13:52.729Z</time></trkpt><trkpt lat="44.0919183" lon="12.2493033"><ele>221.0</ele><time>2026-04-03T14:13:53.728Z</time></trkpt><trkpt lat="44.0920767" lon="12.2493117"><ele>221.0</ele><time>2026-04-03T14:13:54.725Z</time></trkpt><trkpt lat="44.0922367" lon="12.2493217"><ele>221.0</ele><time>2026-04-03T14:13:55.729Z</time></trkpt><trkpt lat="44.0923933" lon="12.24933"><ele>221.0</ele><time>2026-04-03T14:13:56.729Z</time></trkpt><trkpt lat="44.0925383" lon="12.2493183"><ele>223.25</ele><time>2026-04-03T14:13:57.729Z</time></trkpt><trkpt lat="44.09267" lon="12.2492883"><ele>225.5</ele><time>2026-04-03T14:13:58.729Z</time></trkpt><trkpt lat="44.092795" lon="12.249235"><ele>227.75</ele><time>2026-04-03T14:13:59.728Z</time></trkpt><trkpt lat="44.0929083" lon="12.2491567"><ele>230.0</ele><time>2026-04-03T14:14:00.73Z</time></trkpt><trkpt lat="44.0930017" lon="12.2490683"><ele>230.00000000000003</ele><time>2026-04-03T14:14:01.726Z</time></trkpt><trkpt lat="44.093075" lon="12.2489867"><ele>230.0</ele><time>2026-04-03T14:14:02.729Z</time></trkpt><trkpt lat="44.0931433" lon="12.248905"><ele>230.0</ele><time>2026-04-03T14:14:03.727Z</time></trkpt><trkpt lat="44.0931983" lon="12.2488267"><ele>230.0</ele><time>2026-04-03T14:14:04.728Z</time></trkpt><trkpt lat="44.09324" lon="12.2487467"><ele>230.00000000000003</ele><time>2026-04-03T14:14:05.724Z</time></trkpt><trkpt lat="44.0933033" lon="12.2486183"><ele>230.0</ele><time>2026-04-03T14:14:07.726Z</time></trkpt><trkpt lat="44.0933333" lon="12.2485367"><ele>230.0</ele><time>2026-04-03T14:14:10.728Z</time></trkpt><trkpt lat="44.0932417" lon="12.2485933"><ele>230.0</ele><time>2026-04-03T14:14:20.73Z</time></trkpt><trkpt lat="44.0931717" lon="12.2487333"><ele>230.0</ele><time>2026-04-03T14:14:22.729Z</time></trkpt><trkpt lat="44.0931283" lon="12.2488283"><ele>230.0</ele><time>2026-04-03T14:14:23.728Z</time></trkpt><trkpt lat="44.0930717" lon="12.2489267"><ele>230.0</ele><time>2026-04-03T14:14:24.729Z</time></trkpt><trkpt lat="44.093005" lon="12.2490067"><ele>230.00000000000003</ele><time>2026-04-03T14:14:25.73Z</time></trkpt><trkpt lat="44.0929267" lon="12.2490817"><ele>230.0</ele><time>2026-04-03T14:14:26.727Z</time></trkpt><trkpt lat="44.0928517" lon="12.249145"><ele>230.0</ele><time>2026-04-03T14:14:27.728Z</time></trkpt><trkpt lat="44.09278" lon="12.2492"><ele>230.0</ele><time>2026-04-03T14:14:28.731Z</time></trkpt><trkpt lat="44.092725" lon="12.249245"><ele>230.00000000000003</ele><time>2026-04-03T14:14:29.728Z</time></trkpt><trkpt lat="44.0926633" lon="12.2493617"><ele>230.0</ele><time>2026-04-03T14:14:31.727Z</time></trkpt><trkpt lat="44.0927517" lon="12.2495283"><ele>230.0</ele><time>2026-04-03T14:14:33.729Z</time></trkpt><trkpt lat="44.0928467" lon="12.2496167"><ele>230.0</ele><time>2026-04-03T14:14:34.73Z</time></trkpt><trkpt lat="44.0929467" lon="12.2497017"><ele>230.0</ele><time>2026-04-03T14:14:35.729Z</time></trkpt><trkpt lat="44.0930567" lon="12.2497667"><ele>230.0</ele><time>2026-04-03T14:14:36.73Z</time></trkpt><trkpt lat="44.0931917" lon="12.2498083"><ele>228.5</ele><time>2026-04-03T14:14:37.73Z</time></trkpt><trkpt lat="44.0933167" lon="12.2498417"><ele>227.0</ele><time>2026-04-03T14:14:38.729Z</time></trkpt><trkpt lat="44.09344" lon="12.2498667"><ele>225.5</ele><time>2026-04-03T14:14:39.729Z</time></trkpt><trkpt lat="44.093565" lon="12.249885"><ele>224.0</ele><time>2026-04-03T14:14:40.729Z</time></trkpt><trkpt lat="44.0936833" lon="12.2498983"><ele>224.0</ele><time>2026-04-03T14:14:41.729Z</time></trkpt><trkpt lat="44.0938017" lon="12.249885"><ele>224.0</ele><time>2026-04-03T14:14:42.726Z</time></trkpt><trkpt lat="44.0939217" lon="12.2498167"><ele>224.0</ele><time>2026-04-03T14:14:43.726Z</time></trkpt><trkpt lat="44.0940317" lon="12.2497017"><ele>224.0</ele><time>2026-04-03T14:14:44.728Z</time></trkpt><trkpt lat="44.0941283" lon="12.2495583"><ele>226.66666666666669</ele><time>2026-04-03T14:14:45.728Z</time></trkpt><trkpt lat="44.0942233" lon="12.2493883"><ele>229.33333333333331</ele><time>2026-04-03T14:14:46.725Z</time></trkpt><trkpt lat="44.094315" lon="12.249205"><ele>232.0</ele><time>2026-04-03T14:14:47.725Z</time></trkpt><trkpt lat="44.0944017" lon="12.2490483"><ele>235.0</ele><time>2026-04-03T14:14:48.727Z</time></trkpt><trkpt lat="44.0945033" lon="12.2489333"><ele>238.0</ele><time>2026-04-03T14:14:49.729Z</time></trkpt><trkpt lat="44.0946217" lon="12.2488583"><ele>241.0</ele><time>2026-04-03T14:14:50.732Z</time></trkpt><trkpt lat="44.094755" lon="12.2488467"><ele>244.0</ele><time>2026-04-03T14:14:51.726Z</time></trkpt><trkpt lat="44.0948933" lon="12.2488967"><ele>235.0</ele><time>2026-04-03T14:14:52.728Z</time></trkpt><trkpt lat="44.0950417" lon="12.2489833"><ele>226.0</ele><time>2026-04-03T14:14:53.73Z</time></trkpt><trkpt lat="44.0951867" lon="12.2490617"><ele>217.0</ele><time>2026-04-03T14:14:54.73Z</time></trkpt><trkpt lat="44.0953233" lon="12.2491033"><ele>217.0</ele><time>2026-04-03T14:14:55.727Z</time></trkpt><trkpt lat="44.09546" lon="12.2491183"><ele>217.0</ele><time>2026-04-03T14:14:56.726Z</time></trkpt><trkpt lat="44.09561" lon="12.2490933"><ele>217.0</ele><time>2026-04-03T14:14:57.726Z</time></trkpt><trkpt lat="44.095765" lon="12.249065"><ele>217.0</ele><time>2026-04-03T14:14:58.727Z</time></trkpt><trkpt lat="44.0959167" lon="12.2490717"><ele>217.0</ele><time>2026-04-03T14:14:59.726Z</time></trkpt><trkpt lat="44.09607" lon="12.2491267"><ele>217.0</ele><time>2026-04-03T14:15:00.726Z</time></trkpt><trkpt lat="44.0962233" lon="12.2492267"><ele>217.0</ele><time>2026-04-03T14:15:01.728Z</time></trkpt><trkpt lat="44.0963717" lon="12.2493567"><ele>217.0</ele><time>2026-04-03T14:15:02.729Z</time></trkpt><trkpt lat="44.0965167" lon="12.2494867"><ele>217.0</ele><time>2026-04-03T14:15:03.725Z</time></trkpt><trkpt lat="44.09665" lon="12.249615"><ele>217.0</ele><time>2026-04-03T14:15:04.726Z</time></trkpt><trkpt lat="44.09677" lon="12.2497183"><ele>218.75</ele><time>2026-04-03T14:15:05.725Z</time></trkpt><trkpt lat="44.0968867" lon="12.2497883"><ele>220.5</ele><time>2026-04-03T14:15:06.726Z</time></trkpt><trkpt lat="44.0969917" lon="12.24982"><ele>222.25</ele><time>2026-04-03T14:15:07.726Z</time></trkpt><trkpt lat="44.0971067" lon="12.249815"><ele>224.0</ele><time>2026-04-03T14:15:08.726Z</time></trkpt><trkpt lat="44.0972333" lon="12.2497817"><ele>224.0</ele><time>2026-04-03T14:15:09.726Z</time></trkpt><trkpt lat="44.0973567" lon="12.2497317"><ele>224.0</ele><time>2026-04-03T14:15:10.726Z</time></trkpt><trkpt lat="44.0974767" lon="12.2496833"><ele>224.0</ele><time>2026-04-03T14:15:11.726Z</time></trkpt><trkpt lat="44.0975983" lon="12.249625"><ele>224.0</ele><time>2026-04-03T14:15:12.725Z</time></trkpt><trkpt lat="44.0977267" lon="12.2495783"><ele>223.75</ele><time>2026-04-03T14:15:13.729Z</time></trkpt><trkpt lat="44.0978567" lon="12.2495583"><ele>223.5</ele><time>2026-04-03T14:15:14.725Z</time></trkpt><trkpt lat="44.0979867" lon="12.249565"><ele>223.25</ele><time>2026-04-03T14:15:15.726Z</time></trkpt><trkpt lat="44.0981167" lon="12.249585"><ele>223.0</ele><time>2026-04-03T14:15:16.726Z</time></trkpt><trkpt lat="44.0982533" lon="12.2495967"><ele>220.0</ele><time>2026-04-03T14:15:17.727Z</time></trkpt><trkpt lat="44.0983867" lon="12.2496083"><ele>217.0</ele><time>2026-04-03T14:15:18.725Z</time></trkpt><trkpt lat="44.0985133" lon="12.2496117"><ele>214.0</ele><time>2026-04-03T14:15:19.726Z</time></trkpt><trkpt lat="44.0986367" lon="12.2495983"><ele>211.0</ele><time>2026-04-03T14:15:20.727Z</time></trkpt><trkpt lat="44.0987617" lon="12.24959"><ele>211.0</ele><time>2026-04-03T14:15:21.726Z</time></trkpt><trkpt lat="44.09889" lon="12.2495933"><ele>211.0</ele><time>2026-04-03T14:15:22.726Z</time></trkpt><trkpt lat="44.0990083" lon="12.2496167"><ele>211.0</ele><time>2026-04-03T14:15:23.726Z</time></trkpt><trkpt lat="44.0991217" lon="12.2496567"><ele>211.0</ele><time>2026-04-03T14:15:24.725Z</time></trkpt><trkpt lat="44.0992283" lon="12.2497267"><ele>207.5</ele><time>2026-04-03T14:15:25.726Z</time></trkpt><trkpt lat="44.0993383" lon="12.2497967"><ele>204.0</ele><time>2026-04-03T14:15:26.725Z</time></trkpt><trkpt lat="44.0994417" lon="12.2498883"><ele>200.5</ele><time>2026-04-03T14:15:27.725Z</time></trkpt><trkpt lat="44.099545" lon="12.2499633"><ele>197.0</ele><time>2026-04-03T14:15:28.727Z</time></trkpt><trkpt lat="44.0996517" lon="12.2500417"><ele>197.0</ele><time>2026-04-03T14:15:29.725Z</time></trkpt><trkpt lat="44.0997467" lon="12.2501283"><ele>197.0</ele><time>2026-04-03T14:15:30.727Z</time></trkpt><trkpt lat="44.0998317" lon="12.2502133"><ele>197.0</ele><time>2026-04-03T14:15:31.727Z</time></trkpt><trkpt lat="44.0999067" lon="12.2503183"><ele>197.0</ele><time>2026-04-03T14:15:32.726Z</time></trkpt><trkpt lat="44.099955" lon="12.2504417"><ele>197.0</ele><time>2026-04-03T14:15:33.726Z</time></trkpt><trkpt lat="44.0999883" lon="12.25058"><ele>194.75</ele><time>2026-04-03T14:15:34.725Z</time></trkpt><trkpt lat="44.1000033" lon="12.25074"><ele>192.5</ele><time>2026-04-03T14:15:35.725Z</time></trkpt><trkpt lat="44.1000133" lon="12.2509167"><ele>190.25</ele><time>2026-04-03T14:15:36.726Z</time></trkpt><trkpt lat="44.1000217" lon="12.2511"><ele>188.0</ele><time>2026-04-03T14:15:37.724Z</time></trkpt><trkpt lat="44.1000233" lon="12.2512867"><ele>186.5</ele><time>2026-04-03T14:15:38.728Z</time></trkpt><trkpt lat="44.1000233" lon="12.251475"><ele>185.0</ele><time>2026-04-03T14:15:39.726Z</time></trkpt><trkpt lat="44.1000133" lon="12.251665"><ele>183.5</ele><time>2026-04-03T14:15:40.724Z</time></trkpt><trkpt lat="44.0999933" lon="12.251865"><ele>182.0</ele><time>2026-04-03T14:15:41.725Z</time></trkpt><trkpt lat="44.0999733" lon="12.2520683"><ele>182.0</ele><time>2026-04-03T14:15:42.727Z</time></trkpt><trkpt lat="44.09996" lon="12.2522733"><ele>182.0</ele><time>2026-04-03T14:15:43.727Z</time></trkpt><trkpt lat="44.09996" lon="12.252475"><ele>182.0</ele><time>2026-04-03T14:15:44.73Z</time></trkpt><trkpt lat="44.0999733" lon="12.2526767"><ele>182.0</ele><time>2026-04-03T14:15:45.729Z</time></trkpt><trkpt lat="44.1000117" lon="12.25287"><ele>182.0</ele><time>2026-04-03T14:15:46.726Z</time></trkpt><trkpt lat="44.10008" lon="12.2530467"><ele>182.0</ele><time>2026-04-03T14:15:47.725Z</time></trkpt><trkpt lat="44.1001717" lon="12.2532133"><ele>182.0</ele><time>2026-04-03T14:15:48.728Z</time></trkpt><trkpt lat="44.1002767" lon="12.2533717"><ele>182.0</ele><time>2026-04-03T14:15:49.725Z</time></trkpt><trkpt lat="44.10038" lon="12.2535183"><ele>182.0</ele><time>2026-04-03T14:15:50.724Z</time></trkpt><trkpt lat="44.10047" lon="12.2536517"><ele>182.0</ele><time>2026-04-03T14:15:51.724Z</time></trkpt><trkpt lat="44.1005483" lon="12.2537767"><ele>182.0</ele><time>2026-04-03T14:15:52.726Z</time></trkpt><trkpt lat="44.100595" lon="12.2539133"><ele>183.25</ele><time>2026-04-03T14:15:53.726Z</time></trkpt><trkpt lat="44.10062" lon="12.2540633"><ele>184.5</ele><time>2026-04-03T14:15:54.725Z</time></trkpt><trkpt lat="44.100635" lon="12.2542217"><ele>185.75</ele><time>2026-04-03T14:15:55.726Z</time></trkpt><trkpt lat="44.1006417" lon="12.2543883"><ele>187.0</ele><time>2026-04-03T14:15:56.726Z</time></trkpt><trkpt lat="44.1006433" lon="12.25456"><ele>187.0</ele><time>2026-04-03T14:15:57.725Z</time></trkpt><trkpt lat="44.1006433" lon="12.2547433"><ele>187.0</ele><time>2026-04-03T14:15:58.724Z</time></trkpt><trkpt lat="44.1006233" lon="12.25492"><ele>187.0</ele><time>2026-04-03T14:15:59.726Z</time></trkpt><trkpt lat="44.1006" lon="12.2550883"><ele>187.0</ele><time>2026-04-03T14:16:00.725Z</time></trkpt><trkpt lat="44.1005917" lon="12.25526"><ele>184.5</ele><time>2026-04-03T14:16:01.726Z</time></trkpt><trkpt lat="44.1006017" lon="12.2554317"><ele>182.0</ele><time>2026-04-03T14:16:02.726Z</time></trkpt><trkpt lat="44.1006383" lon="12.2556083"><ele>179.5</ele><time>2026-04-03T14:16:03.725Z</time></trkpt><trkpt lat="44.1006933" lon="12.2557933"><ele>177.0</ele><time>2026-04-03T14:16:04.725Z</time></trkpt><trkpt lat="44.1007483" lon="12.255975"><ele>178.0</ele><time>2026-04-03T14:16:05.725Z</time></trkpt><trkpt lat="44.1007983" lon="12.2561517"><ele>179.0</ele><time>2026-04-03T14:16:06.726Z</time></trkpt><trkpt lat="44.10085" lon="12.2563217"><ele>180.0</ele><time>2026-04-03T14:16:07.726Z</time></trkpt><trkpt lat="44.1009217" lon="12.2564817"><ele>181.0</ele><time>2026-04-03T14:16:08.725Z</time></trkpt><trkpt lat="44.101015" lon="12.25663"><ele>178.0</ele><time>2026-04-03T14:16:09.73Z</time></trkpt><trkpt lat="44.1011033" lon="12.2567617"><ele>175.0</ele><time>2026-04-03T14:16:10.728Z</time></trkpt><trkpt lat="44.101185" lon="12.2568767"><ele>172.0</ele><time>2026-04-03T14:16:11.729Z</time></trkpt><trkpt lat="44.10126" lon="12.256985"><ele>169.0</ele><time>2026-04-03T14:16:12.727Z</time></trkpt><trkpt lat="44.101335" lon="12.25709"><ele>169.0</ele><time>2026-04-03T14:16:13.728Z</time></trkpt><trkpt lat="44.101415" lon="12.2571933"><ele>169.0</ele><time>2026-04-03T14:16:14.729Z</time></trkpt><trkpt lat="44.1015033" lon="12.2573083"><ele>169.0</ele><time>2026-04-03T14:16:15.732Z</time></trkpt><trkpt lat="44.1015933" lon="12.25744"><ele>169.0</ele><time>2026-04-03T14:16:16.728Z</time></trkpt><trkpt lat="44.1016867" lon="12.257585"><ele>169.0</ele><time>2026-04-03T14:16:17.726Z</time></trkpt><trkpt lat="44.101795" lon="12.2577367"><ele>169.0</ele><time>2026-04-03T14:16:18.728Z</time></trkpt><trkpt lat="44.1019217" lon="12.2578967"><ele>169.0</ele><time>2026-04-03T14:16:19.725Z</time></trkpt><trkpt lat="44.1020683" lon="12.2580667"><ele>168.66666666666669</ele><time>2026-04-03T14:16:20.724Z</time></trkpt><trkpt lat="44.1022217" lon="12.2582417"><ele>168.33333333333334</ele><time>2026-04-03T14:16:21.726Z</time></trkpt><trkpt lat="44.102375" lon="12.2584083"><ele>168.0</ele><time>2026-04-03T14:16:22.726Z</time></trkpt><trkpt lat="44.1025167" lon="12.2585667"><ele>169.0</ele><time>2026-04-03T14:16:23.726Z</time></trkpt><trkpt lat="44.1026417" lon="12.2587267"><ele>170.0</ele><time>2026-04-03T14:16:24.726Z</time></trkpt><trkpt lat="44.1027467" lon="12.2588983"><ele>171.0</ele><time>2026-04-03T14:16:25.727Z</time></trkpt><trkpt lat="44.10283" lon="12.2590883"><ele>171.0</ele><time>2026-04-03T14:16:26.726Z</time></trkpt><trkpt lat="44.1028867" lon="12.2592917"><ele>171.0</ele><time>2026-04-03T14:16:27.725Z</time></trkpt><trkpt lat="44.1029233" lon="12.259495"><ele>171.0</ele><time>2026-04-03T14:16:28.726Z</time></trkpt><trkpt lat="44.1029633" lon="12.2597017"><ele>165.66666666666666</ele><time>2026-04-03T14:16:29.725Z</time></trkpt><trkpt lat="44.10303" lon="12.2598933"><ele>160.33333333333331</ele><time>2026-04-03T14:16:30.729Z</time></trkpt><trkpt lat="44.1031117" lon="12.2601"><ele>155.0</ele><time>2026-04-03T14:16:31.726Z</time></trkpt><trkpt lat="44.1031917" lon="12.26032"><ele>154.5</ele><time>2026-04-03T14:16:32.728Z</time></trkpt><trkpt lat="44.1032567" lon="12.2605383"><ele>154.0</ele><time>2026-04-03T14:16:33.726Z</time></trkpt><trkpt lat="44.1032983" lon="12.2607233"><ele>153.5</ele><time>2026-04-03T14:16:34.725Z</time></trkpt><trkpt lat="44.103325" lon="12.2608733"><ele>153.0</ele><time>2026-04-03T14:16:35.728Z</time></trkpt><trkpt lat="44.10336" lon="12.26101"><ele>153.0</ele><time>2026-04-03T14:16:36.729Z</time></trkpt><trkpt lat="44.1034167" lon="12.2611033"><ele>153.0</ele><time>2026-04-03T14:16:37.728Z</time></trkpt><trkpt lat="44.1034867" lon="12.26116"><ele>153.0</ele><time>2026-04-03T14:16:38.729Z</time></trkpt><trkpt lat="44.103575" lon="12.2611717"><ele>153.0</ele><time>2026-04-03T14:16:39.725Z</time></trkpt><trkpt lat="44.1036917" lon="12.261135"><ele>153.0</ele><time>2026-04-03T14:16:40.728Z</time></trkpt><trkpt lat="44.1038667" lon="12.26107"><ele>149.66666666666666</ele><time>2026-04-03T14:16:41.728Z</time></trkpt><trkpt lat="44.1040867" lon="12.2610317"><ele>146.33333333333331</ele><time>2026-04-03T14:16:42.729Z</time></trkpt><trkpt lat="44.1043033" lon="12.2610417"><ele>143.0</ele><time>2026-04-03T14:16:43.729Z</time></trkpt><trkpt lat="44.1045133" lon="12.26108"><ele>143.0</ele><time>2026-04-03T14:16:44.729Z</time></trkpt><trkpt lat="44.104725" lon="12.26114"><ele>143.0</ele><time>2026-04-03T14:16:45.729Z</time></trkpt><trkpt lat="44.1049217" lon="12.2612017"><ele>143.0</ele><time>2026-04-03T14:16:46.725Z</time></trkpt><trkpt lat="44.1050917" lon="12.2612617"><ele>142.0</ele><time>2026-04-03T14:16:47.725Z</time></trkpt><trkpt lat="44.1052383" lon="12.2613333"><ele>141.0</ele><time>2026-04-03T14:16:48.725Z</time></trkpt><trkpt lat="44.1053733" lon="12.26143"><ele>140.0</ele><time>2026-04-03T14:16:49.726Z</time></trkpt><trkpt lat="44.1055083" lon="12.2615717"><ele>137.66666666666666</ele><time>2026-04-03T14:16:50.725Z</time></trkpt><trkpt lat="44.10564" lon="12.26174"><ele>135.33333333333334</ele><time>2026-04-03T14:16:51.724Z</time></trkpt><trkpt lat="44.1057733" lon="12.261925"><ele>133.0</ele><time>2026-04-03T14:16:52.727Z</time></trkpt><trkpt lat="44.1058967" lon="12.2621217"><ele>132.0</ele><time>2026-04-03T14:16:53.727Z</time></trkpt><trkpt lat="44.1060067" lon="12.2623383"><ele>131.0</ele><time>2026-04-03T14:16:54.727Z</time></trkpt><trkpt lat="44.1060933" lon="12.2625733"><ele>130.0</ele><time>2026-04-03T14:16:55.726Z</time></trkpt><trkpt lat="44.1061633" lon="12.26281"><ele>130.0</ele><time>2026-04-03T14:16:56.727Z</time></trkpt><trkpt lat="44.1062183" lon="12.2630233"><ele>130.0</ele><time>2026-04-03T14:16:57.727Z</time></trkpt><trkpt lat="44.1062667" lon="12.2632"><ele>130.0</ele><time>2026-04-03T14:16:58.725Z</time></trkpt><trkpt lat="44.10633" lon="12.2633283"><ele>130.0</ele><time>2026-04-03T14:16:59.727Z</time></trkpt><trkpt lat="44.106415" lon="12.263415"><ele>130.25</ele><time>2026-04-03T14:17:00.731Z</time></trkpt><trkpt lat="44.10652" lon="12.263445"><ele>130.5</ele><time>2026-04-03T14:17:01.729Z</time></trkpt><trkpt lat="44.106645" lon="12.263415"><ele>130.75</ele><time>2026-04-03T14:17:02.724Z</time></trkpt><trkpt lat="44.1067867" lon="12.2633417"><ele>131.0</ele><time>2026-04-03T14:17:03.724Z</time></trkpt><trkpt lat="44.10693" lon="12.2632617"><ele>131.0</ele><time>2026-04-03T14:17:04.725Z</time></trkpt><trkpt lat="44.107085" lon="12.263195"><ele>131.0</ele><time>2026-04-03T14:17:05.725Z</time></trkpt><trkpt lat="44.1072567" lon="12.2631617"><ele>131.0</ele><time>2026-04-03T14:17:06.728Z</time></trkpt><trkpt lat="44.1074283" lon="12.263175"><ele>130.0</ele><time>2026-04-03T14:17:07.728Z</time></trkpt><trkpt lat="44.107595" lon="12.2632433"><ele>129.0</ele><time>2026-04-03T14:17:08.729Z</time></trkpt><trkpt lat="44.1077483" lon="12.2633617"><ele>128.0</ele><time>2026-04-03T14:17:09.724Z</time></trkpt><trkpt lat="44.107885" lon="12.263515"><ele>128.0</ele><time>2026-04-03T14:17:10.729Z</time></trkpt><trkpt lat="44.108005" lon="12.263715"><ele>128.0</ele><time>2026-04-03T14:17:11.729Z</time></trkpt><trkpt lat="44.1081133" lon="12.263935"><ele>128.0</ele><time>2026-04-03T14:17:12.729Z</time></trkpt><trkpt lat="44.10822" lon="12.2641417"><ele>128.0</ele><time>2026-04-03T14:17:13.729Z</time></trkpt><trkpt lat="44.108325" lon="12.2643167"><ele>128.0</ele><time>2026-04-03T14:17:14.73Z</time></trkpt><trkpt lat="44.1084383" lon="12.26445"><ele>128.0</ele><time>2026-04-03T14:17:15.729Z</time></trkpt><trkpt lat="44.1085617" lon="12.2645467"><ele>128.0</ele><time>2026-04-03T14:17:16.726Z</time></trkpt><trkpt lat="44.1086967" lon="12.2645983"><ele>128.0</ele><time>2026-04-03T14:17:17.725Z</time></trkpt><trkpt lat="44.1088367" lon="12.2645967"><ele>128.0</ele><time>2026-04-03T14:17:18.726Z</time></trkpt><trkpt lat="44.1089783" lon="12.26455"><ele>128.0</ele><time>2026-04-03T14:17:19.725Z</time></trkpt><trkpt lat="44.1091367" lon="12.26448"><ele>129.66666666666666</ele><time>2026-04-03T14:17:20.724Z</time></trkpt><trkpt lat="44.109295" lon="12.264435"><ele>131.33333333333334</ele><time>2026-04-03T14:17:21.725Z</time></trkpt><trkpt lat="44.10945" lon="12.26443"><ele>133.0</ele><time>2026-04-03T14:17:22.727Z</time></trkpt><trkpt lat="44.1096033" lon="12.2644683"><ele>133.0</ele><time>2026-04-03T14:17:23.728Z</time></trkpt><trkpt lat="44.1097517" lon="12.2645567"><ele>133.0</ele><time>2026-04-03T14:17:24.729Z</time></trkpt><trkpt lat="44.1099017" lon="12.2646817"><ele>133.0</ele><time>2026-04-03T14:17:25.728Z</time></trkpt><trkpt lat="44.11004" lon="12.264845"><ele>129.66666666666669</ele><time>2026-04-03T14:17:26.729Z</time></trkpt><trkpt lat="44.11016" lon="12.2650383"><ele>126.33333333333334</ele><time>2026-04-03T14:17:27.724Z</time></trkpt><trkpt lat="44.1102567" lon="12.265255"><ele>123.0</ele><time>2026-04-03T14:17:28.727Z</time></trkpt><trkpt lat="44.1103367" lon="12.26549"><ele>120.66666666666666</ele><time>2026-04-03T14:17:29.731Z</time></trkpt><trkpt lat="44.1104117" lon="12.2657383"><ele>118.33333333333333</ele><time>2026-04-03T14:17:30.725Z</time></trkpt><trkpt lat="44.1104767" lon="12.2659917"><ele>116.0</ele><time>2026-04-03T14:17:31.728Z</time></trkpt><trkpt lat="44.110535" lon="12.2662183"><ele>116.0</ele><time>2026-04-03T14:17:32.725Z</time></trkpt><trkpt lat="44.1105833" lon="12.2664067"><ele>116.0</ele><time>2026-04-03T14:17:33.726Z</time></trkpt><trkpt lat="44.1106383" lon="12.2665667"><ele>116.0</ele><time>2026-04-03T14:17:34.725Z</time></trkpt><trkpt lat="44.11073" lon="12.2667033"><ele>116.0</ele><time>2026-04-03T14:17:35.725Z</time></trkpt><trkpt lat="44.1108583" lon="12.266825"><ele>118.0</ele><time>2026-04-03T14:17:36.726Z</time></trkpt><trkpt lat="44.1110067" lon="12.26694"><ele>120.0</ele><time>2026-04-03T14:17:37.726Z</time></trkpt><trkpt lat="44.1111533" lon="12.2670583"><ele>122.0</ele><time>2026-04-03T14:17:38.726Z</time></trkpt><trkpt lat="44.111285" lon="12.2671833"><ele>119.0</ele><time>2026-04-03T14:17:39.725Z</time></trkpt><trkpt lat="44.1114017" lon="12.2673233"><ele>116.0</ele><time>2026-04-03T14:17:40.728Z</time></trkpt><trkpt lat="44.1114967" lon="12.267505"><ele>113.0</ele><time>2026-04-03T14:17:41.73Z</time></trkpt><trkpt lat="44.1115667" lon="12.26772"><ele>114.33333333333333</ele><time>2026-04-03T14:17:42.73Z</time></trkpt><trkpt lat="44.1116083" lon="12.267945"><ele>115.66666666666666</ele><time>2026-04-03T14:17:43.728Z</time></trkpt><trkpt lat="44.111645" lon="12.26815"><ele>117.0</ele><time>2026-04-03T14:17:44.729Z</time></trkpt><trkpt lat="44.1116867" lon="12.2683267"><ele>117.0</ele><time>2026-04-03T14:17:45.725Z</time></trkpt><trkpt lat="44.1117517" lon="12.2684783"><ele>117.0</ele><time>2026-04-03T14:17:46.727Z</time></trkpt><trkpt lat="44.1118517" lon="12.2686033"><ele>117.0</ele><time>2026-04-03T14:17:47.726Z</time></trkpt><trkpt lat="44.11198" lon="12.2687033"><ele>117.0</ele><time>2026-04-03T14:17:48.727Z</time></trkpt><trkpt lat="44.112135" lon="12.268795"><ele>117.0</ele><time>2026-04-03T14:17:49.727Z</time></trkpt><trkpt lat="44.1123033" lon="12.2688933"><ele>117.0</ele><time>2026-04-03T14:17:50.726Z</time></trkpt><trkpt lat="44.11248" lon="12.2690067"><ele>117.0</ele><time>2026-04-03T14:17:51.727Z</time></trkpt><trkpt lat="44.11266" lon="12.2691317"><ele>114.66666666666666</ele><time>2026-04-03T14:17:52.726Z</time></trkpt><trkpt lat="44.1128433" lon="12.26926"><ele>112.33333333333333</ele><time>2026-04-03T14:17:53.726Z</time></trkpt><trkpt lat="44.1130317" lon="12.26939"><ele>110.0</ele><time>2026-04-03T14:17:54.727Z</time></trkpt><trkpt lat="44.113225" lon="12.269525"><ele>108.33333333333333</ele><time>2026-04-03T14:17:55.726Z</time></trkpt><trkpt lat="44.1134167" lon="12.2696667"><ele>106.66666666666666</ele><time>2026-04-03T14:17:56.729Z</time></trkpt><trkpt lat="44.1136067" lon="12.2698117"><ele>105.0</ele><time>2026-04-03T14:17:57.727Z</time></trkpt><trkpt lat="44.1137967" lon="12.2699567"><ele>103.33333333333334</ele><time>2026-04-03T14:17:58.726Z</time></trkpt><trkpt lat="44.11398" lon="12.2701083"><ele>101.66666666666667</ele><time>2026-04-03T14:17:59.727Z</time></trkpt><trkpt lat="44.1141467" lon="12.270265"><ele>100.0</ele><time>2026-04-03T14:18:00.731Z</time></trkpt><trkpt lat="44.1142933" lon="12.2704333"><ele>98.66666666666667</ele><time>2026-04-03T14:18:01.727Z</time></trkpt><trkpt lat="44.11442" lon="12.2706233"><ele>97.33333333333334</ele><time>2026-04-03T14:18:02.725Z</time></trkpt><trkpt lat="44.1145333" lon="12.270825"><ele>96.0</ele><time>2026-04-03T14:18:03.726Z</time></trkpt><trkpt lat="44.1146367" lon="12.271025"><ele>96.0</ele><time>2026-04-03T14:18:04.822Z</time></trkpt><trkpt lat="44.1147317" lon="12.2712167"><ele>96.0</ele><time>2026-04-03T14:18:05.726Z</time></trkpt><trkpt lat="44.1148233" lon="12.271405"><ele>96.0</ele><time>2026-04-03T14:18:06.729Z</time></trkpt><trkpt lat="44.1149133" lon="12.271595"><ele>95.5</ele><time>2026-04-03T14:18:07.727Z</time></trkpt><trkpt lat="44.115" lon="12.2717733"><ele>95.0</ele><time>2026-04-03T14:18:08.729Z</time></trkpt><trkpt lat="44.1150883" lon="12.27193"><ele>94.5</ele><time>2026-04-03T14:18:09.726Z</time></trkpt><trkpt lat="44.11519" lon="12.2720667"><ele>94.0</ele><time>2026-04-03T14:18:10.726Z</time></trkpt><trkpt lat="44.1153167" lon="12.2721783"><ele>94.0</ele><time>2026-04-03T14:18:11.726Z</time></trkpt><trkpt lat="44.11547" lon="12.2722617"><ele>94.0</ele><time>2026-04-03T14:18:12.727Z</time></trkpt><trkpt lat="44.1156417" lon="12.272335"><ele>94.0</ele><time>2026-04-03T14:18:13.727Z</time></trkpt><trkpt lat="44.1158267" lon="12.2724067"><ele>90.0</ele><time>2026-04-03T14:18:14.729Z</time></trkpt><trkpt lat="44.1160167" lon="12.2724867"><ele>86.0</ele><time>2026-04-03T14:18:15.729Z</time></trkpt><trkpt lat="44.1162083" lon="12.2725683"><ele>82.0</ele><time>2026-04-03T14:18:16.73Z</time></trkpt><trkpt lat="44.116395" lon="12.2726533"><ele>81.66666666666666</ele><time>2026-04-03T14:18:17.729Z</time></trkpt><trkpt lat="44.11659" lon="12.27274"><ele>81.33333333333333</ele><time>2026-04-03T14:18:18.729Z</time></trkpt><trkpt lat="44.1167883" lon="12.2728267"><ele>81.0</ele><time>2026-04-03T14:18:19.728Z</time></trkpt><trkpt lat="44.11699" lon="12.2729083"><ele>81.0</ele><time>2026-04-03T14:18:20.729Z</time></trkpt><trkpt lat="44.1171883" lon="12.2729867"><ele>81.0</ele><time>2026-04-03T14:18:21.729Z</time></trkpt><trkpt lat="44.1173917" lon="12.27307"><ele>81.0</ele><time>2026-04-03T14:18:22.728Z</time></trkpt><trkpt lat="44.1175933" lon="12.273165"><ele>76.33333333333333</ele><time>2026-04-03T14:18:23.726Z</time></trkpt><trkpt lat="44.1177883" lon="12.2732717"><ele>71.66666666666666</ele><time>2026-04-03T14:18:24.726Z</time></trkpt><trkpt lat="44.117975" lon="12.2733767"><ele>67.0</ele><time>2026-04-03T14:18:25.726Z</time></trkpt><trkpt lat="44.1181517" lon="12.2734783"><ele>66.66666666666666</ele><time>2026-04-03T14:18:26.725Z</time></trkpt><trkpt lat="44.1183267" lon="12.2735617"><ele>66.33333333333333</ele><time>2026-04-03T14:18:27.726Z</time></trkpt><trkpt lat="44.11851" lon="12.2736217"><ele>66.0</ele><time>2026-04-03T14:18:28.726Z</time></trkpt><trkpt lat="44.1187017" lon="12.2736633"><ele>66.0</ele><time>2026-04-03T14:18:29.726Z</time></trkpt><trkpt lat="44.118905" lon="12.27369"><ele>66.0</ele><time>2026-04-03T14:18:30.729Z</time></trkpt><trkpt lat="44.1191117" lon="12.2737117"><ele>66.0</ele><time>2026-04-03T14:18:31.73Z</time></trkpt><trkpt lat="44.11932" lon="12.273735"><ele>65.33333333333333</ele><time>2026-04-03T14:18:32.726Z</time></trkpt><trkpt lat="44.1195317" lon="12.2737617"><ele>64.66666666666666</ele><time>2026-04-03T14:18:33.726Z</time></trkpt><trkpt lat="44.1197467" lon="12.2737917"><ele>64.0</ele><time>2026-04-03T14:18:34.725Z</time></trkpt><trkpt lat="44.1199583" lon="12.27382"><ele>62.666666666666664</ele><time>2026-04-03T14:18:35.725Z</time></trkpt><trkpt lat="44.1201717" lon="12.273845"><ele>61.33333333333333</ele><time>2026-04-03T14:18:36.725Z</time></trkpt><trkpt lat="44.1203833" lon="12.27387"><ele>60.0</ele><time>2026-04-03T14:18:37.725Z</time></trkpt><trkpt lat="44.12059" lon="12.2738933"><ele>57.0</ele><time>2026-04-03T14:18:38.725Z</time></trkpt><trkpt lat="44.1207967" lon="12.2739233"><ele>54.0</ele><time>2026-04-03T14:18:39.726Z</time></trkpt><trkpt lat="44.1210017" lon="12.2739483"><ele>51.0</ele><time>2026-04-03T14:18:40.729Z</time></trkpt><trkpt lat="44.1212067" lon="12.2739767"><ele>51.0</ele><time>2026-04-03T14:18:41.73Z</time></trkpt><trkpt lat="44.1214133" lon="12.2740017"><ele>51.0</ele><time>2026-04-03T14:18:42.729Z</time></trkpt><trkpt lat="44.1216233" lon="12.2740233"><ele>51.0</ele><time>2026-04-03T14:18:43.73Z</time></trkpt><trkpt lat="44.121835" lon="12.2740483"><ele>49.333333333333336</ele><time>2026-04-03T14:18:44.73Z</time></trkpt><trkpt lat="44.1220467" lon="12.2740733"><ele>47.66666666666667</ele><time>2026-04-03T14:18:45.729Z</time></trkpt><trkpt lat="44.1222617" lon="12.2741017"><ele>46.0</ele><time>2026-04-03T14:18:46.729Z</time></trkpt><trkpt lat="44.1224717" lon="12.2741317"><ele>45.333333333333336</ele><time>2026-04-03T14:18:47.729Z</time></trkpt><trkpt lat="44.1226817" lon="12.27416"><ele>44.666666666666664</ele><time>2026-04-03T14:18:48.729Z</time></trkpt><trkpt lat="44.122885" lon="12.2741817"><ele>44.0</ele><time>2026-04-03T14:18:49.73Z</time></trkpt><trkpt lat="44.1230783" lon="12.2742033"><ele>43.0</ele><time>2026-04-03T14:18:50.729Z</time></trkpt><trkpt lat="44.1232617" lon="12.274235"><ele>42.0</ele><time>2026-04-03T14:18:51.728Z</time></trkpt><trkpt lat="44.1234483" lon="12.2742583"><ele>41.0</ele><time>2026-04-03T14:18:52.729Z</time></trkpt><trkpt lat="44.1236367" lon="12.27428"><ele>41.0</ele><time>2026-04-03T14:18:53.725Z</time></trkpt><trkpt lat="44.1238267" lon="12.2743033"><ele>41.0</ele><time>2026-04-03T14:18:54.726Z</time></trkpt><trkpt lat="44.1240167" lon="12.2743267"><ele>41.0</ele><time>2026-04-03T14:18:55.726Z</time></trkpt><trkpt lat="44.1242083" lon="12.2743517"><ele>38.666666666666664</ele><time>2026-04-03T14:18:56.727Z</time></trkpt><trkpt lat="44.1244033" lon="12.2743717"><ele>36.333333333333336</ele><time>2026-04-03T14:18:57.729Z</time></trkpt><trkpt lat="44.124595" lon="12.2743933"><ele>34.0</ele><time>2026-04-03T14:18:58.73Z</time></trkpt><trkpt lat="44.1247867" lon="12.274415"><ele>34.0</ele><time>2026-04-03T14:18:59.73Z</time></trkpt><trkpt lat="44.1249717" lon="12.2744417"><ele>34.0</ele><time>2026-04-03T14:19:00.73Z</time></trkpt><trkpt lat="44.1251567" lon="12.2744683"><ele>34.0</ele><time>2026-04-03T14:19:01.728Z</time></trkpt><trkpt lat="44.1253433" lon="12.2744967"><ele>34.0</ele><time>2026-04-03T14:19:02.816Z</time></trkpt><trkpt lat="44.1255317" lon="12.27452"><ele>34.0</ele><time>2026-04-03T14:19:03.726Z</time></trkpt><trkpt lat="44.1257183" lon="12.2745417"><ele>34.0</ele><time>2026-04-03T14:19:04.729Z</time></trkpt><trkpt lat="44.1259033" lon="12.2745617"><ele>33.333333333333336</ele><time>2026-04-03T14:19:05.729Z</time></trkpt><trkpt lat="44.126085" lon="12.2745833"><ele>32.666666666666664</ele><time>2026-04-03T14:19:06.73Z</time></trkpt><trkpt lat="44.126265" lon="12.2746033"><ele>32.0</ele><time>2026-04-03T14:19:07.729Z</time></trkpt><trkpt lat="44.12644" lon="12.2746233"><ele>32.33333333333333</ele><time>2026-04-03T14:19:08.73Z</time></trkpt><trkpt lat="44.12661" lon="12.2746467"><ele>32.666666666666664</ele><time>2026-04-03T14:19:09.73Z</time></trkpt><trkpt lat="44.1267783" lon="12.2746667"><ele>33.0</ele><time>2026-04-03T14:19:10.73Z</time></trkpt><trkpt lat="44.1269517" lon="12.2746867"><ele>33.0</ele><time>2026-04-03T14:19:11.73Z</time></trkpt><trkpt lat="44.1271217" lon="12.274705"><ele>33.0</ele><time>2026-04-03T14:19:12.729Z</time></trkpt><trkpt lat="44.12728" lon="12.2747217"><ele>33.0</ele><time>2026-04-03T14:19:13.73Z</time></trkpt><trkpt lat="44.127415" lon="12.2747367"><ele>32.666666666666664</ele><time>2026-04-03T14:19:14.73Z</time></trkpt><trkpt lat="44.1275267" lon="12.274755"><ele>32.333333333333336</ele><time>2026-04-03T14:19:15.729Z</time></trkpt><trkpt lat="44.1276133" lon="12.2747817"><ele>32.0</ele><time>2026-04-03T14:19:16.73Z</time></trkpt><trkpt lat="44.1276817" lon="12.2748067"><ele>31.666666666666668</ele><time>2026-04-03T14:19:17.728Z</time></trkpt><trkpt lat="44.1277467" lon="12.274815"><ele>31.333333333333336</ele><time>2026-04-03T14:19:19.729Z</time></trkpt><trkpt lat="44.1278167" lon="12.2747983"><ele>31.0</ele><time>2026-04-03T14:19:46.73Z</time></trkpt><trkpt lat="44.1279517" lon="12.274815"><ele>31.0</ele><time>2026-04-03T14:19:48.73Z</time></trkpt><trkpt lat="44.1280333" lon="12.2748317"><ele>31.0</ele><time>2026-04-03T14:19:49.73Z</time></trkpt><trkpt lat="44.1281117" lon="12.27485"><ele>31.0</ele><time>2026-04-03T14:19:50.729Z</time></trkpt><trkpt lat="44.12821" lon="12.27488"><ele>31.0</ele><time>2026-04-03T14:19:52.729Z</time></trkpt><trkpt lat="44.128285" lon="12.2748867"><ele>31.0</ele><time>2026-04-03T14:20:00.729Z</time></trkpt><trkpt lat="44.1283767" lon="12.27477"><ele>31.5</ele><time>2026-04-03T14:20:02.725Z</time></trkpt><trkpt lat="44.1284217" lon="12.274655"><ele>32.0</ele><time>2026-04-03T14:20:03.73Z</time></trkpt><trkpt lat="44.12847" lon="12.274525"><ele>32.5</ele><time>2026-04-03T14:20:04.728Z</time></trkpt><trkpt lat="44.128535" lon="12.274345"><ele>33.0</ele><time>2026-04-03T14:20:05.73Z</time></trkpt><trkpt lat="44.128605" lon="12.27416"><ele>33.0</ele><time>2026-04-03T14:20:06.725Z</time></trkpt><trkpt lat="44.1286767" lon="12.2739733"><ele>33.0</ele><time>2026-04-03T14:20:07.725Z</time></trkpt><trkpt lat="44.1287483" lon="12.2737833"><ele>33.0</ele><time>2026-04-03T14:20:08.725Z</time></trkpt><trkpt lat="44.12882" lon="12.273595"><ele>32.333333333333336</ele><time>2026-04-03T14:20:09.724Z</time></trkpt><trkpt lat="44.1288883" lon="12.2734067"><ele>31.666666666666668</ele><time>2026-04-03T14:20:10.729Z</time></trkpt><trkpt lat="44.12896" lon="12.2732167"><ele>31.0</ele><time>2026-04-03T14:20:11.728Z</time></trkpt><trkpt lat="44.1290383" lon="12.27302"><ele>31.666666666666668</ele><time>2026-04-03T14:20:12.728Z</time></trkpt><trkpt lat="44.12913" lon="12.2728183"><ele>32.333333333333336</ele><time>2026-04-03T14:20:13.728Z</time></trkpt><trkpt lat="44.1292333" lon="12.2726183"><ele>33.0</ele><time>2026-04-03T14:20:14.819Z</time></trkpt><trkpt lat="44.12934" lon="12.2724217"><ele>32.666666666666664</ele><time>2026-04-03T14:20:15.724Z</time></trkpt><trkpt lat="44.1294533" lon="12.2722283"><ele>32.33333333333333</ele><time>2026-04-03T14:20:16.725Z</time></trkpt><trkpt lat="44.129565" lon="12.2720433"><ele>32.0</ele><time>2026-04-03T14:20:17.725Z</time></trkpt><trkpt lat="44.12969" lon="12.271865"><ele>32.0</ele><time>2026-04-03T14:20:18.727Z</time></trkpt><trkpt lat="44.1298183" lon="12.271695"><ele>32.0</ele><time>2026-04-03T14:20:19.725Z</time></trkpt><trkpt lat="44.12995" lon="12.27153"><ele>32.0</ele><time>2026-04-03T14:20:20.724Z</time></trkpt><trkpt lat="44.1300833" lon="12.27138"><ele>32.33333333333333</ele><time>2026-04-03T14:20:21.724Z</time></trkpt><trkpt lat="44.13022" lon="12.27123"><ele>32.666666666666664</ele><time>2026-04-03T14:20:22.729Z</time></trkpt><trkpt lat="44.1303533" lon="12.2710833"><ele>33.0</ele><time>2026-04-03T14:20:23.725Z</time></trkpt><trkpt lat="44.130475" lon="12.2709367"><ele>33.0</ele><time>2026-04-03T14:20:24.729Z</time></trkpt><trkpt lat="44.13059" lon="12.270795"><ele>33.0</ele><time>2026-04-03T14:20:25.728Z</time></trkpt><trkpt lat="44.130695" lon="12.2706517"><ele>33.0</ele><time>2026-04-03T14:20:26.729Z</time></trkpt><trkpt lat="44.1307917" lon="12.2704967"><ele>33.0</ele><time>2026-04-03T14:20:27.727Z</time></trkpt><trkpt lat="44.1308817" lon="12.2703267"><ele>33.0</ele><time>2026-04-03T14:20:28.728Z</time></trkpt><trkpt lat="44.1309633" lon="12.2701433"><ele>33.0</ele><time>2026-04-03T14:20:29.725Z</time></trkpt><trkpt lat="44.1310383" lon="12.269955"><ele>33.0</ele><time>2026-04-03T14:20:30.727Z</time></trkpt><trkpt lat="44.1311117" lon="12.269765"><ele>33.0</ele><time>2026-04-03T14:20:31.726Z</time></trkpt><trkpt lat="44.1311833" lon="12.269585"><ele>33.0</ele><time>2026-04-03T14:20:32.727Z</time></trkpt><trkpt lat="44.1312517" lon="12.2694183"><ele>33.0</ele><time>2026-04-03T14:20:33.726Z</time></trkpt><trkpt lat="44.1313333" lon="12.2692883"><ele>33.0</ele><time>2026-04-03T14:20:34.728Z</time></trkpt><trkpt lat="44.131435" lon="12.2691983"><ele>33.0</ele><time>2026-04-03T14:20:35.726Z</time></trkpt><trkpt lat="44.1315533" lon="12.2691517"><ele>33.0</ele><time>2026-04-03T14:20:36.732Z</time></trkpt><trkpt lat="44.131685" lon="12.2691317"><ele>33.0</ele><time>2026-04-03T14:20:37.731Z</time></trkpt><trkpt lat="44.1318267" lon="12.2691283"><ele>33.0</ele><time>2026-04-03T14:20:38.727Z</time></trkpt><trkpt lat="44.1319717" lon="12.2691467"><ele>32.666666666666664</ele><time>2026-04-03T14:20:39.727Z</time></trkpt><trkpt lat="44.1321233" lon="12.26919"><ele>32.33333333333333</ele><time>2026-04-03T14:20:40.726Z</time></trkpt><trkpt lat="44.1322717" lon="12.26923"><ele>32.0</ele><time>2026-04-03T14:20:41.727Z</time></trkpt><trkpt lat="44.1324133" lon="12.269265"><ele>31.5</ele><time>2026-04-03T14:20:42.727Z</time></trkpt><trkpt lat="44.132545" lon="12.2692933"><ele>31.0</ele><time>2026-04-03T14:20:43.728Z</time></trkpt><trkpt lat="44.1326683" lon="12.2693167"><ele>30.5</ele><time>2026-04-03T14:20:44.731Z</time></trkpt><trkpt lat="44.1327817" lon="12.2693383"><ele>30.0</ele><time>2026-04-03T14:20:45.728Z</time></trkpt><trkpt lat="44.1328817" lon="12.2693583"><ele>30.0</ele><time>2026-04-03T14:20:46.728Z</time></trkpt><trkpt lat="44.1329767" lon="12.269375"><ele>30.0</ele><time>2026-04-03T14:20:47.728Z</time></trkpt><trkpt lat="44.1330633" lon="12.2693867"><ele>30.0</ele><time>2026-04-03T14:20:48.729Z</time></trkpt><trkpt lat="44.1331417" lon="12.2693983"><ele>30.0</ele><time>2026-04-03T14:20:49.728Z</time></trkpt><trkpt lat="44.1332067" lon="12.2694133"><ele>30.0</ele><time>2026-04-03T14:20:50.728Z</time></trkpt><trkpt lat="44.1332983" lon="12.2694367"><ele>30.0</ele><time>2026-04-03T14:20:52.725Z</time></trkpt><trkpt lat="44.1333683" lon="12.26945"><ele>30.2</ele><time>2026-04-03T14:20:54.724Z</time></trkpt><trkpt lat="44.1334833" lon="12.2695083"><ele>30.4</ele><time>2026-04-03T14:21:01.726Z</time></trkpt><trkpt lat="44.1335717" lon="12.269515"><ele>30.6</ele><time>2026-04-03T14:21:02.725Z</time></trkpt><trkpt lat="44.1336667" lon="12.26952"><ele>30.8</ele><time>2026-04-03T14:21:03.731Z</time></trkpt><trkpt lat="44.133785" lon="12.269525"><ele>31.0</ele><time>2026-04-03T14:21:04.725Z</time></trkpt><trkpt lat="44.133915" lon="12.26953"><ele>31.0</ele><time>2026-04-03T14:21:05.725Z</time></trkpt><trkpt lat="44.13405" lon="12.2695283"><ele>31.0</ele><time>2026-04-03T14:21:06.725Z</time></trkpt><trkpt lat="44.134185" lon="12.2695183"><ele>31.0</ele><time>2026-04-03T14:21:07.729Z</time></trkpt><trkpt lat="44.1343183" lon="12.2695"><ele>31.0</ele><time>2026-04-03T14:21:08.726Z</time></trkpt><trkpt lat="44.1344517" lon="12.2694533"><ele>31.0</ele><time>2026-04-03T14:21:09.726Z</time></trkpt><trkpt lat="44.1345883" lon="12.2693717"><ele>31.0</ele><time>2026-04-03T14:21:10.729Z</time></trkpt><trkpt lat="44.1347167" lon="12.2692767"><ele>31.0</ele><time>2026-04-03T14:21:11.729Z</time></trkpt><trkpt lat="44.13484" lon="12.2691567"><ele>31.0</ele><time>2026-04-03T14:21:12.728Z</time></trkpt><trkpt lat="44.13495" lon="12.2690217"><ele>31.25</ele><time>2026-04-03T14:21:13.731Z</time></trkpt><trkpt lat="44.135045" lon="12.268875"><ele>31.5</ele><time>2026-04-03T14:21:14.729Z</time></trkpt><trkpt lat="44.1351283" lon="12.26871"><ele>31.75</ele><time>2026-04-03T14:21:15.729Z</time></trkpt><trkpt lat="44.13519" lon="12.2685467"><ele>32.0</ele><time>2026-04-03T14:21:16.728Z</time></trkpt><trkpt lat="44.1352417" lon="12.2683933"><ele>32.0</ele><time>2026-04-03T14:21:17.728Z</time></trkpt><trkpt lat="44.1352933" lon="12.2682467"><ele>32.0</ele><time>2026-04-03T14:21:18.728Z</time></trkpt><trkpt lat="44.135345" lon="12.2681"><ele>32.0</ele><time>2026-04-03T14:21:19.732Z</time></trkpt><trkpt lat="44.1354017" lon="12.267945"><ele>32.0</ele><time>2026-04-03T14:21:20.728Z</time></trkpt><trkpt lat="44.13546" lon="12.2677933"><ele>32.25</ele><time>2026-04-03T14:21:21.728Z</time></trkpt><trkpt lat="44.135515" lon="12.2676417"><ele>32.5</ele><time>2026-04-03T14:21:22.729Z</time></trkpt><trkpt lat="44.1355683" lon="12.2674967"><ele>32.75</ele><time>2026-04-03T14:21:23.729Z</time></trkpt><trkpt lat="44.1356217" lon="12.26736"><ele>33.0</ele><time>2026-04-03T14:21:24.73Z</time></trkpt><trkpt lat="44.1356683" lon="12.2672317"><ele>33.0</ele><time>2026-04-03T14:21:25.729Z</time></trkpt><trkpt lat="44.13571" lon="12.2671217"><ele>33.0</ele><time>2026-04-03T14:21:26.729Z</time></trkpt><trkpt lat="44.135745" lon="12.267025"><ele>33.0</ele><time>2026-04-03T14:21:27.726Z</time></trkpt><trkpt lat="44.1357917" lon="12.2668983"><ele>33.0</ele><time>2026-04-03T14:21:29.725Z</time></trkpt><trkpt lat="44.1358267" lon="12.2668233"><ele>33.0</ele><time>2026-04-03T14:21:32.725Z</time></trkpt><trkpt lat="44.1358317" lon="12.2667333"><ele>33.0</ele><time>2026-04-03T14:22:22.727Z</time></trkpt><trkpt lat="44.13588" lon="12.2665867"><ele>33.333333333333336</ele><time>2026-04-03T14:22:24.727Z</time></trkpt><trkpt lat="44.13594" lon="12.2664433"><ele>33.666666666666664</ele><time>2026-04-03T14:22:26.726Z</time></trkpt><trkpt lat="44.13597" lon="12.2663633"><ele>34.0</ele><time>2026-04-03T14:22:27.727Z</time></trkpt><trkpt lat="44.1359983" lon="12.2662717"><ele>34.33333333333333</ele><time>2026-04-03T14:22:28.729Z</time></trkpt><trkpt lat="44.1360283" lon="12.2661767"><ele>34.666666666666664</ele><time>2026-04-03T14:22:29.728Z</time></trkpt><trkpt lat="44.1360633" lon="12.266075"><ele>35.0</ele><time>2026-04-03T14:22:30.728Z</time></trkpt><trkpt lat="44.1361017" lon="12.2659683"><ele>35.0</ele><time>2026-04-03T14:22:31.725Z</time></trkpt><trkpt lat="44.13614" lon="12.2658583"><ele>35.0</ele><time>2026-04-03T14:22:32.725Z</time></trkpt><trkpt lat="44.1361833" lon="12.2657467"><ele>35.0</ele><time>2026-04-03T14:22:33.725Z</time></trkpt><trkpt lat="44.1362283" lon="12.2656417"><ele>35.0</ele><time>2026-04-03T14:22:34.726Z</time></trkpt><trkpt lat="44.1362683" lon="12.2655267"><ele>35.0</ele><time>2026-04-03T14:22:35.726Z</time></trkpt><trkpt lat="44.1363133" lon="12.26541"><ele>34.83333333333333</ele><time>2026-04-03T14:22:36.726Z</time></trkpt><trkpt lat="44.1363567" lon="12.2652967"><ele>34.666666666666664</ele><time>2026-04-03T14:22:37.729Z</time></trkpt><trkpt lat="44.1363983" lon="12.2651833"><ele>34.5</ele><time>2026-04-03T14:22:38.726Z</time></trkpt><trkpt lat="44.1364367" lon="12.2650683"><ele>34.333333333333336</ele><time>2026-04-03T14:22:39.727Z</time></trkpt><trkpt lat="44.1364717" lon="12.26496"><ele>34.16666666666667</ele><time>2026-04-03T14:22:40.728Z</time></trkpt><trkpt lat="44.1365083" lon="12.26485"><ele>34.0</ele><time>2026-04-03T14:22:41.729Z</time></trkpt><trkpt lat="44.13655" lon="12.26474"><ele>33.6</ele><time>2026-04-03T14:22:42.729Z</time></trkpt><trkpt lat="44.1365883" lon="12.26463"><ele>33.2</ele><time>2026-04-03T14:22:43.729Z</time></trkpt><trkpt lat="44.136625" lon="12.264515"><ele>32.800000000000004</ele><time>2026-04-03T14:22:44.729Z</time></trkpt><trkpt lat="44.136665" lon="12.2644"><ele>32.4</ele><time>2026-04-03T14:22:45.727Z</time></trkpt><trkpt lat="44.1367017" lon="12.2642783"><ele>32.0</ele><time>2026-04-03T14:22:46.728Z</time></trkpt><trkpt lat="44.1367417" lon="12.26416"><ele>31.999999999999996</ele><time>2026-04-03T14:22:47.728Z</time></trkpt><trkpt lat="44.1367783" lon="12.264045"><ele>32.0</ele><time>2026-04-03T14:22:48.728Z</time></trkpt><trkpt lat="44.136815" lon="12.2639367"><ele>32.0</ele><time>2026-04-03T14:22:49.729Z</time></trkpt><trkpt lat="44.1368483" lon="12.2638383"><ele>32.0</ele><time>2026-04-03T14:22:50.726Z</time></trkpt><trkpt lat="44.136875" lon="12.2637467"><ele>31.999999999999996</ele><time>2026-04-03T14:22:51.729Z</time></trkpt><trkpt lat="44.136905" lon="12.2636583"><ele>32.0</ele><time>2026-04-03T14:22:52.726Z</time></trkpt><trkpt lat="44.1369283" lon="12.2635767"><ele>32.0</ele><time>2026-04-03T14:22:53.728Z</time></trkpt><trkpt lat="44.1369633" lon="12.2634733"><ele>32.0</ele><time>2026-04-03T14:22:55.729Z</time></trkpt><trkpt lat="44.1370167" lon="12.2633467"><ele>32.0</ele><time>2026-04-03T14:23:04.728Z</time></trkpt><trkpt lat="44.137075" lon="12.2632317"><ele>32.0</ele><time>2026-04-03T14:23:06.727Z</time></trkpt><trkpt lat="44.1371167" lon="12.2630717"><ele>32.0</ele><time>2026-04-03T14:23:08.728Z</time></trkpt><trkpt lat="44.1371433" lon="12.2629767"><ele>32.2</ele><time>2026-04-03T14:23:09.727Z</time></trkpt><trkpt lat="44.1371733" lon="12.2628633"><ele>32.400000000000006</ele><time>2026-04-03T14:23:10.727Z</time></trkpt><trkpt lat="44.1372167" lon="12.2627483"><ele>32.599999999999994</ele><time>2026-04-03T14:23:11.73Z</time></trkpt><trkpt lat="44.13726" lon="12.2626317"><ele>32.8</ele><time>2026-04-03T14:23:12.729Z</time></trkpt><trkpt lat="44.1373" lon="12.2625117"><ele>33.0</ele><time>2026-04-03T14:23:13.725Z</time></trkpt><trkpt lat="44.1373417" lon="12.2623867"><ele>33.0</ele><time>2026-04-03T14:23:14.73Z</time></trkpt><trkpt lat="44.137385" lon="12.2622633"><ele>33.0</ele><time>2026-04-03T14:23:15.729Z</time></trkpt><trkpt lat="44.1374267" lon="12.2621383"><ele>33.0</ele><time>2026-04-03T14:23:16.728Z</time></trkpt><trkpt lat="44.1374717" lon="12.2620133"><ele>33.0</ele><time>2026-04-03T14:23:17.727Z</time></trkpt><trkpt lat="44.13752" lon="12.2618767"><ele>33.0</ele><time>2026-04-03T14:23:18.726Z</time></trkpt><trkpt lat="44.1375733" lon="12.2617367"><ele>33.0</ele><time>2026-04-03T14:23:19.728Z</time></trkpt><trkpt lat="44.137625" lon="12.2616"><ele>33.0</ele><time>2026-04-03T14:23:20.728Z</time></trkpt><trkpt lat="44.137675" lon="12.2614633"><ele>33.0</ele><time>2026-04-03T14:23:21.727Z</time></trkpt><trkpt lat="44.1377233" lon="12.2613283"><ele>33.0</ele><time>2026-04-03T14:23:22.728Z</time></trkpt><trkpt lat="44.13777" lon="12.2611933"><ele>33.0</ele><time>2026-04-03T14:23:23.729Z</time></trkpt><trkpt lat="44.1378133" lon="12.261065"><ele>33.0</ele><time>2026-04-03T14:23:24.728Z</time></trkpt><trkpt lat="44.137855" lon="12.26094"><ele>33.0</ele><time>2026-04-03T14:23:25.729Z</time></trkpt><trkpt lat="44.1378917" lon="12.2608267"><ele>33.0</ele><time>2026-04-03T14:23:26.73Z</time></trkpt><trkpt lat="44.1379267" lon="12.2607133"><ele>33.0</ele><time>2026-04-03T14:23:27.725Z</time></trkpt><trkpt lat="44.137965" lon="12.2606033"><ele>33.0</ele><time>2026-04-03T14:23:28.729Z</time></trkpt><trkpt lat="44.138" lon="12.2605017"><ele>33.0</ele><time>2026-04-03T14:23:29.728Z</time></trkpt><trkpt lat="44.138035" lon="12.260405"><ele>33.0</ele><time>2026-04-03T14:23:30.729Z</time></trkpt><trkpt lat="44.1380667" lon="12.2603083"><ele>33.0</ele><time>2026-04-03T14:23:31.725Z</time></trkpt><trkpt lat="44.1381" lon="12.26021"><ele>33.0</ele><time>2026-04-03T14:23:32.727Z</time></trkpt><trkpt lat="44.138135" lon="12.2601117"><ele>33.0</ele><time>2026-04-03T14:23:33.726Z</time></trkpt><trkpt lat="44.138165" lon="12.2600217"><ele>33.0</ele><time>2026-04-03T14:23:34.726Z</time></trkpt><trkpt lat="44.1382083" lon="12.259905"><ele>33.0</ele><time>2026-04-03T14:23:36.726Z</time></trkpt><trkpt lat="44.13826" lon="12.2598433"><ele>33.0</ele><time>2026-04-03T14:23:38.725Z</time></trkpt><trkpt lat="44.1383283" lon="12.259845"><ele>33.0</ele><time>2026-04-03T14:23:40.726Z</time></trkpt><trkpt lat="44.1384467" lon="12.2599217"><ele>33.0</ele><time>2026-04-03T14:23:42.729Z</time></trkpt><trkpt lat="44.138545" lon="12.2599783"><ele>33.0</ele><time>2026-04-03T14:23:44.729Z</time></trkpt><trkpt lat="44.1386483" lon="12.2600583"><ele>33.0</ele><time>2026-04-03T14:23:46.729Z</time></trkpt><trkpt lat="44.138715" lon="12.2601217"><ele>33.0</ele><time>2026-04-03T14:23:47.728Z</time></trkpt><trkpt lat="44.1387883" lon="12.2601833"><ele>33.0</ele><time>2026-04-03T14:23:48.728Z</time></trkpt><trkpt lat="44.138855" lon="12.260235"><ele>33.0</ele><time>2026-04-03T14:23:49.729Z</time></trkpt><trkpt lat="44.1389133" lon="12.260275"><ele>33.0</ele><time>2026-04-03T14:23:50.729Z</time></trkpt><trkpt lat="44.1389867" lon="12.26034"><ele>33.0</ele><time>2026-04-03T14:23:52.726Z</time></trkpt><trkpt lat="44.1389983" lon="12.2604533"><ele>33.0</ele><time>2026-04-03T14:23:54.729Z</time></trkpt><trkpt lat="44.139" lon="12.2606167"><ele>33.333333333333336</ele><time>2026-04-03T14:23:56.73Z</time></trkpt><trkpt lat="44.1390683" lon="12.2607483"><ele>33.666666666666664</ele><time>2026-04-03T14:23:58.729Z</time></trkpt><trkpt lat="44.1391317" lon="12.260785"><ele>34.0</ele><time>2026-04-03T14:23:59.726Z</time></trkpt><trkpt lat="44.1392" lon="12.2608017"><ele>34.33333333333333</ele><time>2026-04-03T14:24:00.729Z</time></trkpt><trkpt lat="44.139285" lon="12.2607983"><ele>34.666666666666664</ele><time>2026-04-03T14:24:01.73Z</time></trkpt><trkpt lat="44.139375" lon="12.2607867"><ele>35.0</ele><time>2026-04-03T14:24:02.73Z</time></trkpt><trkpt lat="44.1394717" lon="12.2607767"><ele>35.0</ele><time>2026-04-03T14:24:03.728Z</time></trkpt><trkpt lat="44.1395733" lon="12.2607617"><ele>35.0</ele><time>2026-04-03T14:24:04.729Z</time></trkpt><trkpt lat="44.139675" lon="12.2607483"><ele>35.0</ele><time>2026-04-03T14:24:05.733Z</time></trkpt><trkpt lat="44.13978" lon="12.2607333"><ele>35.0</ele><time>2026-04-03T14:24:06.729Z</time></trkpt><trkpt lat="44.1398933" lon="12.26072"><ele>35.0</ele><time>2026-04-03T14:24:07.73Z</time></trkpt><trkpt lat="44.14001" lon="12.2607033"><ele>34.5</ele><time>2026-04-03T14:24:08.729Z</time></trkpt><trkpt lat="44.1401283" lon="12.2606867"><ele>34.0</ele><time>2026-04-03T14:24:09.728Z</time></trkpt><trkpt lat="44.1402467" lon="12.2606717"><ele>33.5</ele><time>2026-04-03T14:24:10.727Z</time></trkpt><trkpt lat="44.1403633" lon="12.2606633"><ele>33.0</ele><time>2026-04-03T14:24:11.727Z</time></trkpt><trkpt lat="44.140485" lon="12.2606483"><ele>33.0</ele><time>2026-04-03T14:24:12.729Z</time></trkpt><trkpt lat="44.1406083" lon="12.26064"><ele>33.0</ele><time>2026-04-03T14:24:13.727Z</time></trkpt><trkpt lat="44.1407317" lon="12.26065"><ele>33.0</ele><time>2026-04-03T14:24:14.73Z</time></trkpt><trkpt lat="44.14086" lon="12.260675"><ele>33.0</ele><time>2026-04-03T14:24:15.731Z</time></trkpt><trkpt lat="44.140995" lon="12.2607333"><ele>32.25</ele><time>2026-04-03T14:24:16.729Z</time></trkpt><trkpt lat="44.1411333" lon="12.2608067"><ele>31.5</ele><time>2026-04-03T14:24:17.73Z</time></trkpt><trkpt lat="44.1412633" lon="12.2608883"><ele>30.75</ele><time>2026-04-03T14:24:18.729Z</time></trkpt><trkpt lat="44.1413933" lon="12.2609733"><ele>30.0</ele><time>2026-04-03T14:24:19.73Z</time></trkpt><trkpt lat="44.1415267" lon="12.2610583"><ele>30.0</ele><time>2026-04-03T14:24:20.725Z</time></trkpt><trkpt lat="44.1416617" lon="12.2611417"><ele>30.0</ele><time>2026-04-03T14:24:21.729Z</time></trkpt><trkpt lat="44.1417917" lon="12.2612267"><ele>30.0</ele><time>2026-04-03T14:24:22.726Z</time></trkpt><trkpt lat="44.141925" lon="12.2613117"><ele>30.0</ele><time>2026-04-03T14:24:23.725Z</time></trkpt><trkpt lat="44.1420633" lon="12.26141"><ele>30.333333333333336</ele><time>2026-04-03T14:24:24.728Z</time></trkpt><trkpt lat="44.1422" lon="12.2614917"><ele>30.666666666666668</ele><time>2026-04-03T14:24:25.728Z</time></trkpt><trkpt lat="44.1423417" lon="12.2615767"><ele>31.0</ele><time>2026-04-03T14:24:26.726Z</time></trkpt><trkpt lat="44.142475" lon="12.2616717"><ele>30.25</ele><time>2026-04-03T14:24:27.729Z</time></trkpt><trkpt lat="44.1426" lon="12.2617783"><ele>29.5</ele><time>2026-04-03T14:24:28.729Z</time></trkpt><trkpt lat="44.1427183" lon="12.2618967"><ele>28.75</ele><time>2026-04-03T14:24:29.73Z</time></trkpt><trkpt lat="44.1428283" lon="12.2620233"><ele>28.0</ele><time>2026-04-03T14:24:30.726Z</time></trkpt><trkpt lat="44.1429333" lon="12.2621583"><ele>28.0</ele><time>2026-04-03T14:24:31.726Z</time></trkpt><trkpt lat="44.1430283" lon="12.26229"><ele>28.0</ele><time>2026-04-03T14:24:32.728Z</time></trkpt><trkpt lat="44.1431167" lon="12.2624167"><ele>28.0</ele><time>2026-04-03T14:24:33.73Z</time></trkpt><trkpt lat="44.143195" lon="12.2625317"><ele>28.0</ele><time>2026-04-03T14:24:34.731Z</time></trkpt><trkpt lat="44.1432583" lon="12.26264"><ele>28.000000000000004</ele><time>2026-04-03T14:24:35.73Z</time></trkpt><trkpt lat="44.1433167" lon="12.2627417"><ele>28.0</ele><time>2026-04-03T14:24:36.729Z</time></trkpt><trkpt lat="44.1433667" lon="12.2628317"><ele>28.0</ele><time>2026-04-03T14:24:37.73Z</time></trkpt><trkpt lat="44.1434033" lon="12.262905"><ele>28.0</ele><time>2026-04-03T14:24:38.729Z</time></trkpt><trkpt lat="44.143455" lon="12.2630167"><ele>28.000000000000004</ele><time>2026-04-03T14:24:40.729Z</time></trkpt><trkpt lat="44.143475" lon="12.263115"><ele>28.0</ele><time>2026-04-03T14:24:42.73Z</time></trkpt><trkpt lat="44.14348" lon="12.26325"><ele>28.166666666666668</ele><time>2026-04-03T14:24:45.728Z</time></trkpt><trkpt lat="44.1434933" lon="12.2634333"><ele>28.333333333333336</ele><time>2026-04-03T14:24:47.729Z</time></trkpt><trkpt lat="44.1435217" lon="12.263535"><ele>28.5</ele><time>2026-04-03T14:24:48.729Z</time></trkpt><trkpt lat="44.1435617" lon="12.2636267"><ele>28.666666666666664</ele><time>2026-04-03T14:24:49.729Z</time></trkpt><trkpt lat="44.1436083" lon="12.26371"><ele>28.833333333333332</ele><time>2026-04-03T14:24:50.729Z</time></trkpt><trkpt lat="44.143665" lon="12.2637917"><ele>29.0</ele><time>2026-04-03T14:24:51.728Z</time></trkpt><trkpt lat="44.143735" lon="12.2638783"><ele>28.833333333333332</ele><time>2026-04-03T14:24:52.729Z</time></trkpt><trkpt lat="44.1438133" lon="12.26395"><ele>28.666666666666664</ele><time>2026-04-03T14:24:53.729Z</time></trkpt><trkpt lat="44.1438917" lon="12.2639983"><ele>28.5</ele><time>2026-04-03T14:24:54.725Z</time></trkpt><trkpt lat="44.1439683" lon="12.2640183"><ele>28.333333333333336</ele><time>2026-04-03T14:24:55.728Z</time></trkpt><trkpt lat="44.144035" lon="12.2640083"><ele>28.166666666666668</ele><time>2026-04-03T14:24:56.729Z</time></trkpt><trkpt lat="44.14409" lon="12.2639583"><ele>28.0</ele><time>2026-04-03T14:24:57.728Z</time></trkpt><trkpt lat="44.14412" lon="12.26387"><ele>27.799999999999997</ele><time>2026-04-03T14:24:58.729Z</time></trkpt><trkpt lat="44.144145" lon="12.2637733"><ele>27.599999999999998</ele><time>2026-04-03T14:24:59.729Z</time></trkpt><trkpt lat="44.1441483" lon="12.26366"><ele>27.400000000000002</ele><time>2026-04-03T14:25:00.728Z</time></trkpt><trkpt lat="44.1440867" lon="12.2635117"><ele>27.200000000000003</ele><time>2026-04-03T14:25:01.728Z</time></trkpt><trkpt lat="44.1439733" lon="12.2633433"><ele>27.0</ele><time>2026-04-03T14:25:02.728Z</time></trkpt><trkpt lat="44.1438867" lon="12.2631917"><ele>27.200000000000003</ele><time>2026-04-03T14:25:03.726Z</time></trkpt><trkpt lat="44.1438283" lon="12.2630483"><ele>27.400000000000002</ele><time>2026-04-03T14:25:04.728Z</time></trkpt><trkpt lat="44.1437833" lon="12.2629083"><ele>27.599999999999998</ele><time>2026-04-03T14:25:05.726Z</time></trkpt><trkpt lat="44.1437683" lon="12.2627917"><ele>27.799999999999997</ele><time>2026-04-03T14:25:06.728Z</time></trkpt><trkpt lat="44.1437667" lon="12.262665"><ele>28.0</ele><time>2026-04-03T14:25:08.728Z</time></trkpt><trkpt lat="44.1437767" lon="12.262575"><ele>28.0</ele><time>2026-04-03T14:25:10.729Z</time></trkpt><trkpt lat="44.1437633" lon="12.26241"><ele>27.999999999999996</ele><time>2026-04-03T14:25:12.728Z</time></trkpt><trkpt lat="44.14375" lon="12.2622833"><ele>27.999999999999996</ele><time>2026-04-03T14:25:13.729Z</time></trkpt><trkpt lat="44.14374" lon="12.262155"><ele>28.0</ele><time>2026-04-03T14:25:14.728Z</time></trkpt><trkpt lat="44.1437317" lon="12.26203"><ele>28.0</ele><time>2026-04-03T14:25:15.728Z</time></trkpt><trkpt lat="44.1437283" lon="12.261915"><ele>28.000000000000004</ele><time>2026-04-03T14:25:16.725Z</time></trkpt><trkpt lat="44.1437217" lon="12.26181"><ele>28.0</ele><time>2026-04-03T14:25:17.726Z</time></trkpt><trkpt lat="44.1437417" lon="12.2616667"><ele>28.0</ele><time>2026-04-03T14:25:19.726Z</time></trkpt><trkpt lat="44.1438267" lon="12.2616567"><ele>28.0</ele><time>2026-04-03T14:25:22.726Z</time></trkpt><trkpt lat="44.1438967" lon="12.2616617"><ele>28.000000000000004</ele><time>2026-04-03T14:25:24.728Z</time></trkpt><trkpt lat="44.14397" lon="12.2616467"><ele>28.0</ele><time>2026-04-03T14:25:28.726Z</time></trkpt><trkpt lat="44.1440417" lon="12.261695"><ele>28.333333333333336</ele><time>2026-04-03T14:25:32.725Z</time></trkpt><trkpt lat="44.14412" lon="12.26164"><ele>28.666666666666668</ele><time>2026-04-03T14:25:36.725Z</time></trkpt><trkpt lat="44.14415" lon="12.2615533"><ele>29.0</ele><time>2026-04-03T14:25:38.726Z</time></trkpt><trkpt lat="44.14421" lon="12.2614267"><ele>29.333333333333336</ele><time>2026-04-03T14:25:41.725Z</time></trkpt><trkpt lat="44.1442767" lon="12.2614367"><ele>29.666666666666668</ele><time>2026-04-03T14:25:43.727Z</time></trkpt><trkpt lat="44.1443783" lon="12.2614583"><ele>30.0</ele><time>2026-04-03T14:25:45.724Z</time></trkpt><trkpt lat="44.1442608" lon="12.2616865"><ele>30.0</ele><time>2026-04-03T14:25:55.943Z</time></trkpt><trkpt lat="44.1440642" lon="12.2618272"><ele>30.0</ele><time>2026-04-03T14:26:01.388Z</time></trkpt><trkpt lat="44.144" lon="12.2616617"><ele>30.0</ele><time>2026-04-03T14:26:07.726Z</time></trkpt><trkpt lat="44.1438317" lon="12.26181"><ele>29.6</ele><time>2026-04-03T14:26:09.724Z</time></trkpt><trkpt lat="44.1437667" lon="12.2618533"><ele>29.2</ele><time>2026-04-03T14:26:13.725Z</time></trkpt><trkpt lat="44.1437767" lon="12.2617267"><ele>28.799999999999997</ele><time>2026-04-03T14:26:18.726Z</time></trkpt><trkpt lat="44.143805" lon="12.2616283"><ele>28.4</ele><time>2026-04-03T14:26:20.726Z</time></trkpt><trkpt lat="44.1439017" lon="12.2615633"><ele>28.0</ele><time>2026-04-03T14:26:36.726Z</time></trkpt><trkpt lat="44.1440417" lon="12.2616433"><ele>28.0</ele><time>2026-04-03T14:26:49.726Z</time></trkpt></trkseg></trk></gpx>